.

Date Time Name Race Sex Age Charge Charge Description Case ID
1/9/2018 1150 LOFTON, DONTE MARQUIS B M 30 8.01-508 FAIL TO APPEAR ON CIVIL MATTER
1/9/2018 1225 HARRIS, ROBERT BRUCE JR W M 54 18.2-456 CONTEMPT OF COURT
1/9/2018 1420 CLEMENTS, SONYA LYNELLE B F 48 18.2-456 CONTEMPT OF COURT
1/9/2018 1420 CLEMENTS, SONYA LYNELLE B F 48 18.2-168 FORGING PUBLIC RECORDS 2018000249
1/9/2018 1420 CLEMENTS, SONYA LYNELLE B F 48 18.2-168 FORGING PUBLIC RECORDS 2018000249
1/9/2018 1420 CLEMENTS, SONYA LYNELLE B F 48 18.2-168 FORGING PUBLIC RECORDS 2018000249
1/9/2018 1420 CLEMENTS, SONYA LYNELLE B F 48 18.2-250|[F] POSSESSION OF CONTROLLED SUBSTANCES 2018000249
1/9/2018 1420 CLEMENTS, SONYA LYNELLE B F 48 18.2-168 FORGING PUBLIC RECORDS 2018000249
1/9/2018 1428 DANCY, RAYMOND EARL JR B M 53 18.2-456 CONTEMPT OF COURT 9999248614
1/9/2018 1428 DANCY, RAYMOND EARL JR B M 53 18.2-456 CONTEMPT OF COURT
1/9/2018 1646 DAVIS, JABARI SHAWNE B M 26 18.2-119 TRESPASSING 9999248917
1/9/2018 1910 JOHNSON, RASHAWN DEONTE B M 24 18.2-250|[F] POSSESSION OF CONTROLLED SUBSTANCES 2018000256
1/9/2018 2211 HEYMANN, THOMAS DEAN W M 28 19.2-306|[F] REVOCATION OF SUSPENDED SENTENCE AND PROBATION
1/9/2018 2211 HEYMANN, THOMAS DEAN W M 28 19.2-306|[F] REVOCATION OF SUSPENDED SENTENCE AND PROBATION
1/9/2018 2305 WILLIAMS, KEVIN VON W M 44 4.1-322 POSSESSION OF ALCOHOL BY INTERDICTED PERSON 2018000268
1/9/2018 2320 SMITH, TYMETRIA ANGENA B F 27 18.2-57.2|[M] ASSAULT & BATTERY - FAMILY MEMBER 2016012617
1/10/2018 0008 LAYTON, JENINE NICOLE W F 43 18.2-250|[F] POSSESSION OF CONTROLLED SUBSTANCES 2018000270
1/10/2018 0008 LAYTON, JENINE NICOLE W F 43 18.2-250|[F] POSSESSION OF CONTROLLED SUBSTANCES 2018000270
1/10/2018 0008 LAYTON, JENINE NICOLE W F 43 18.2-456 CONTEMPT OF COURT
1/10/2018 0008 LAYTON, JENINE NICOLE W F 43 19.2-135 CONTEMPT - SHOW CAUSE
1/10/2018 0008 LAYTON, JENINE NICOLE W F 43 18.2-95 GRAND LARCENY
1/10/2018 0008 LAYTON, JENINE NICOLE W F 43 18.2-95 GRAND LARCENY
1/10/2018 0008 LAYTON, JENINE NICOLE W F 43 19.2-128|[F] FAIL TO APPEAR ON FELONY CHARGE
1/10/2018 0853 THOMAS, JOSHUA TERRELL B M 25 18.2-266 DRIVING UNDER THE INFLUENCE OF ALCOHOL 2017017374
1/10/2018 0853 THOMAS, JOSHUA TERRELL B M 25 46.2-300 NO DRIVERS LICENSE 2017017374
1/10/2018 0853 THOMAS, JOSHUA TERRELL B M 25 24-206 URINATE OR DEFECATE IN PUBLIC [CLASS 4 M 2017017374
1/10/2018 0900 TRACY, ERIC RODRIQUEZ B M 42 3.2-6570[M] CRUELTY TO ANIMALS
1/10/2018 0949 MILLS, JOHN MARCUS KENDALL B M 35 18.2-137|[M] DESTRUCTION OF PROPERTY, GENERAL 2017016726
1/10/2018 0949 MILLS, JOHN MARCUS KENDALL B M 35 18.2-427 PROFANE, THREATENING LANGUAGE OVER PUBLI 2017016726
1/10/2018 0949 MILLS, JOHN MARCUS KENDALL B M 35 18.2-57.2|[M] ASSAULT & BATTERY - FAMILY MEMBER 2018000287
1/10/2018 1008 PERRY, AMANDA BETHANY W F 38 18.2-456 CONTEMPT OF COURT 9999248690
1/10/2018 1205 NASH, AMANDA JEAN W F 28 18.2-57.2|[M] ASSAULT & BATTERY - FAMILY MEMBER
1/10/2018 1205 NASH, AMANDA JEAN W F 28 18.2-456 CONTEMPT OF COURT
1/10/2018 1205 NASH, AMANDA JEAN W F 28 18.2-57.2|[M] ASSAULT & BATTERY - FAMILY MEMBER 2017015417
1/10/2018 1205 NASH, AMANDA JEAN W F 28 18.2-456 CONTEMPT OF COURT
1/10/2018 1205 NASH, AMANDA JEAN W F 28 18.2-456 CONTEMPT OF COURT
1/10/2018 1220 GOODING, SEBRON KENNETH B M 26 18.2-57.2|[M] ASSAULT & BATTERY - FAMILY MEMBER
1/10/2018 1253 HUDSON, SHAQUILLE DEWAUN B M 25 18.2-456 CONTEMPT OF COURT
1/10/2018 1253 HUDSON, SHAQUILLE DEWAUN B M 25 18.2-456 CONTEMPT OF COURT
1/10/2018 1357 STORY, SAMANTHA W F 42 4-96 FAILURE TO ACQUIRE RABIES VACCINATION
1/10/2018 1357 STORY, SAMANTHA W F 42 4-61 CITY DOG LICENSE REQUIREMENT
1/10/2018 1357 STORY, SAMANTHA W F 42 4-31 DOG AT LARGE
1/10/2018 1357 EDWARDS, DUDLEY JOE JR W M 50 18.2-137|[F] DESTRUCTION OF PROPERTY GENERAL -VALUE >=$1000
1/10/2018 1357 EDWARDS, DUDLEY JOE JR W M 50 18.2-178|[F] OBTAINING MONEY BY FALSE PRETENSES
1/10/2018 1357 EDWARDS, DUDLEY JOE JR W M 50 18.2-95 GRAND LARCENY
1/10/2018 1630 COBB, JAYLA BRENDA LEE B F 18 18.2-427 PROFANE, THREATENING LANGUAGE OVER PUBLIC AIRWAY
1/10/2018 1630 COBB, JAYLA BRENDA LEE B F 18 18.2-119 TRESPASSING
1/10/2018 1647 CHARLES, ANEESAH AMIRRAH B F 37 18.2-456 CONTEMPT OF COURT
1/10/2018 1748 GRAY, DAQUAN DOMINIQUE B M 23 18.2-456 CONTEMPT OF COURT
1/10/2018 1944 STEPHENS, LAMONT JAMAL B M 26 19.2-306|[F] REVOCATION OF SUSPENDED SENTENCE AND PROBATION
1/10/2018 2018 WHITE, TAMISHA NICOLE B F 28 18.2-456 CONTEMPT OF COURT
1/10/2018 2145 OKEEFE, CRAIG GARTON W M 39 18.2-250|[F] POSSESSION OF CONTROLLED SUBSTANCES 2018000312
1/10/2018 2150 PRYOR, ARTHUR MARTAN B M 47 18.2-250|[F] POSSESSION OF CONTROLLED SUBSTANCES 2018000312
1/10/2018 2254 KING, FRANK EARL W M 34 18.2-58 ROBBERY 2017016934
1/10/2018 2254 KING, FRANK EARL W M 34 18.2-53.1 USE OR DISPLAY FIREARM IN COMMISSION OF 2017016934
1/10/2018 2254 KING, FRANK EARL W M 34 18.2-53.1 USE OR DISPLAY FIREARM IN COMMISSION OF 2017016934
1/10/2018 2254 KING, FRANK EARL W M 34 18.2-51 FELONIOUS ASSAULT 2017016934
1/10/2018 2254 KING, FRANK EARL W M 34 18.2-192 CREDIT CARD THEFT 2017016934
1/10/2018 2254 KING, FRANK EARL W M 34 18.2-193 CREDIT CARD FORGERY 2017016934
1/10/2018 2254 KING, FRANK EARL W M 34 18.2-195|[F] CREDIT CARD FRAUD 2017016934
1/10/2018 2254 KING, FRANK EARL W M 34 18.2-95 GRAND LARCENY 2017016934
1/10/2018 2254 KING, FRANK EARL W M 34 18.2-308.2 POSSESS, TRANSPORT FIREARMS BY CONVICTED 2017016934
1/10/2018 2254 KING, FRANK EARL W M 34 46.2-301 DRIVING W/SUSPENDED OR REVOKED LICENSE
1/10/2018 9:00:00 AM 0900 MARTIS, ASHLEY ADELE B F 23 18.2-137|[M] DESTRUCTION OF PROPERTY, GENERAL
1/10/2018 12:45:00 PM 1245 PERRY, TYQUAN RAYMONT B M 27 18.2-57.2|[M] ASSAULT & BATTERY - FAMILY MEMBER 2017015358
1/10/2018 12:45:00 PM 1245 PERRY, TYQUAN RAYMONT B M 27 46.2-301 DRIVING W/SUSPENDED OR REVOKED LICENSE 2017015358
1/10/2018 12:45:00 PM 1245 PERRY, TYQUAN RAYMONT B M 27 18.2-371.1 ABUSE AND NEGLECT OF CHILDREN 2017015358
1/10/2018 12:45:00 PM 1245 PERRY, TYQUAN RAYMONT B M 27 18.2-371.1 ABUSE AND NEGLECT OF CHILDREN 2017015358
1/10/2018 12:45:00 PM 1245 PERRY, TYQUAN RAYMONT B M 27 18.2-102|[F] UNAUTHORIZED USE OF VEHICLE, BOAT OR ANIMAL 2017015358
1/10/2018 12:45:00 PM 1245 PERRY, TYQUAN RAYMONT B M 27 18.2-51.6[F] STRANGULATION OF ANOTHER 2017015358
1/10/2018 2:11:00 PM 1411 WILKINS, NA`EEM SHAEMOY B M 24 18.2-137|[M] DESTRUCTION OF PROPERTY, GENERAL 2017017119
1/11/2018 0044 TAYLOR, RICKELL NICHOLE W F 18 18.2-248.1|[F] SALE, DISTRIBUTE MARIJUANA 2017016934
1/11/2018 0109 HOBBS, JAZMINE LEE W F 18 18.2-248.1|[F] SALE, DISTRIBUTE MARIJUANA 2017016934
1/11/2018 0137 BYRD, JOSHUA COLEMAN B M 31 18.2-308|[F] CARRYING CONCEALED WEAPON -SUBSQ OFFENSE 2018000316
1/11/2018 0137 BYRD, JOSHUA COLEMAN B M 31 18.2-250|[F] POSSESSION OF CONTROLLED SUBSTANCES 2018000316
1/11/2018 0137 BYRD, JOSHUA COLEMAN B M 31 18.2-250|[F] POSSESSION OF CONTROLLED SUBSTANCES 2018000316
1/11/2018 0137 BYRD, JOSHUA COLEMAN B M 31 18.2-308.4 POSSESS FIREARM WHILE IN POSSESSION OF DRUGS 2018000316
1/11/2018 0212 BUSH, NICHOLE RENE W F 33 18.2-172 FORGING, UTTERING
1/11/2018 0212 BUSH, NICHOLE RENE W F 33 18.2-172 FORGING, UTTERING
1/11/2018 0212 BUSH, NICHOLE RENE W F 33 18.2-172 FORGING, UTTERING
1/11/2018 0212 BUSH, NICHOLE RENE W F 33 18.2-186.3 IDENTITY THEFT: USE TO AVOID ARREST
1/11/2018 0212 BUSH, NICHOLE RENE W F 33 18.2-58 ROBBERY 2017016934
1/11/2018 0212 BUSH, NICHOLE RENE W F 33 18.2-95 GRAND LARCENY 2017016934
1/11/2018 0212 BUSH, NICHOLE RENE W F 33 18.2-195|[F] CREDIT CARD FRAUD 2017016934
1/11/2018 0212 BUSH, NICHOLE RENE W F 33 18.2-193 CREDIT CARD FORGERY 2017016934
1/11/2018 0212 BUSH, NICHOLE RENE W F 33 18.2-192 CREDIT CARD THEFT 2017016934
1/11/2018 0212 BUSH, NICHOLE RENE W F 33 18.2-51 FELONIOUS ASSAULT 2017016934
1/11/2018 0212 BUSH, NICHOLE RENE W F 33 18.2-53.1 USE OR DISPLAY FIREARM IN COMMISSION OF 2017016934
1/11/2018 0212 BUSH, NICHOLE RENE W F 33 18.2-53.1 USE OR DISPLAY FIREARM IN COMMISSION OF 2017016934
1/11/2018 0212 BUSH, NICHOLE RENE W F 33 18.2-152.3 COMPUTER FRAUD
1/11/2018 0212 BUSH, NICHOLE RENE W F 33 18.2-152.3 COMPUTER FRAUD
1/11/2018 0212 BUSH, NICHOLE RENE W F 33 18.2-152.3 COMPUTER FRAUD
1/11/2018 0212 BUSH, NICHOLE RENE W F 33 18.2-178|[F] OBTAINING MONEY BY FALSE PRETENSES
1/11/2018 0212 BUSH, NICHOLE RENE W F 33 18.2-178|[F] OBTAINING MONEY BY FALSE PRETENSES
1/11/2018 0212 BUSH, NICHOLE RENE W F 33 18.2-178|[F] OBTAINING MONEY BY FALSE PRETENSES
1/11/2018 0212 BUSH, NICHOLE RENE W F 33 18.2-172 FORGING, UTTERING
1/11/2018 0212 BUSH, NICHOLE RENE W F 33 18.2-172 FORGING, UTTERING
1/11/2018 0212 BUSH, NICHOLE RENE W F 33 18.2-172 FORGING, UTTERING
1/11/2018 0345 BYRD, JOSHUA COLEMAN B M 31 18.2-57|[M] ASSAULT & BATTERY
1/11/2018 0930 DUGAS, DAVID WARREN W M 43 18.2-57.2|[M] ASSAULT & BATTERY - FAMILY MEMBER
1/11/2018 0955 OUTLAW, TIMOTHY RHOLAC JR B M 57 18.2-51 FELONIOUS ASSAULT 2017017174
1/11/2018 1007 KNIGHT, TIRELLE DESHAWN B M 27 18.2-119 TRESPASSING
1/11/2018 1130 SMITH, JELAMI MUSA B M 41 18.2-96|[M] PETIT LARCENY
1/11/2018 1140 GARNER, AMBER LESHEA B F 20 18.2-456 CONTEMPT OF COURT
1/11/2018 1222 WHITE, DEWAYNE LOMANT B M 39 19.2-306|[F] REVOCATION OF SUSPENDED SENTENCE AND PROBATION
1/11/2018 1222 WHITE, DEWAYNE LOMANT B M 39 19.2-306|[F] REVOCATION OF SUSPENDED SENTENCE AND PROBATION
1/11/2018 1226 JARVIS, DELVON JAMAR B M 21 18.2-47 ABDUCTION & KIDNAPPING 2017017336
1/11/2018 1239 BRIGGS, MADISON NICOLE W F 27 18.2-111|[F] EMBEZZLEMENT >=$200 2017015324
1/11/2018 1422 CLARK, LORENZO REGINALD SR B M 35 19.2-128|[M] FAIL TO APPEAR ON MISDEMEANOR CHARGE
1/11/2018 1546 SIMON, AARON LATEKO B M 19 18.2-91|[F] BREAKING & ENTER W/INT TO COMMIT FELONY 2017013733
1/11/2018 1546 SIMON, AARON LATEKO B M 19 18.2-95 GRAND LARCENY 2017013733
1/11/2018 1546 SIMON, AARON LATEKO B M 19 18.2-178|[M] OBTAINING MONEY BY FALSE PRETENSES 2017013733
1/11/2018 1546 SIMON, AARON LATEKO B M 19 18.2-137|[M] DESTRUCTION OF PROPERTY, GENERAL 2017013733
1/11/2018 1546 SIMON, AARON LATEKO B M 19 18.2-108|[F] RECEIVING STOLEN GOODS 2017013733
1/11/2018 1546 SIMON, AARON LATEKO B M 19 18.2-178|[M] OBTAINING MONEY BY FALSE PRETENSES 2017013733
1/11/2018 1546 SIMON, AARON LATEKO B M 19 18.2-456 CONTEMPT OF COURT
1/11/2018 1646 MCNEAL, BREON ALEXANDER B M 20 18.2-103|[F] CONCEALMENT, PRICE ALTER MERCHANDISE >=$200
1/11/2018 1650 JEAN, REBECCA YVONNE W F 53 24-258 PUBLIC DRUNKENNESS 2018000349
1/11/2018 1650 DAVIS, JABARI SHAWNE B M 26 18.2-456 CONTEMPT OF COURT
1/11/2018 1706 JOHNSON, DIANE ROSEMARY B F 58 18.2-456 CONTEMPT OF COURT
1/11/2018 2135 HEART, DEVINCEO DEONTRE B M 29 18.2-460[M] OBSTRUCT/RESIST 2018000369
1/11/2018 2135 HEART, DEVINCEO DEONTRE B M 29 18.2-250.1 POSSESSION OF MARIJUANA 2018000369
1/11/2018 11:30:00 AM 1130 HUGHES, BRIAN PERCIVAL W M 39 18.2-427 PROFANE, THREATENING LANGUAGE OVER PUBLIC AIRWAY
1/11/2018 2:50:00 PM 1450 SUGGS, WILLIAM CLIFTON JR B M 43 18.2-137|[M] DESTRUCTION OF PROPERTY, GENERAL 2018000232
1/12/2018 0020 LUCAS, PAGEANT LYNN W F 40 24-258 PUBLIC DRUNKENNESS 2018000374
1/12/2018 0158 LUCAS, ROBERT RENELL B M 46 18.2-248|[F] MANUF, SALE, POSSESSION CONTROLLED SUBSTANCE 2018000372
1/12/2018 0158 LUCAS, ROBERT RENELL B M 46 18.2-248|[F] MANUF, SALE, POSSESSION CONTROLLED SUBSTANCE 2018000372
1/12/2018 0158 LUCAS, ROBERT RENELL B M 46 18.2-308.4 POSSESS FIREARM WHILE IN POSSESSION OF DRUGS 2018000372
1/12/2018 0158 LUCAS, ROBERT RENELL B M 46 18.2-308.2 POSSESS, TRANSPORT FIREARMS BY CONVICTED FELONS 2018000372
1/12/2018 0220 CLARK, TONY DEANGELO B M 43 46.2-301 DRIVING W/SUSPENDED OR REVOKED LICENSE 2018000365
1/12/2018 0220 CLARK, TONY DEANGELO B M 43 18.2-460[M] OBSTRUCT/RESIST 2018000365
1/12/2018 0220 CLARK, TONY DEANGELO B M 43 18.2-268.3 REFUSE BLOOD/BREATH TEST 2018000365
1/12/2018 0220 WHITFIELD, KEONTE JAMAL B M 18 18.2-95 GRAND LARCENY 2017011799
1/12/2018 0220 WHITFIELD, KEONTE JAMAL B M 18 18.2-108.01 STOLEN PROPERTY: W/ INTENT TO SELL, LARCENY>$200 2017011799
1/12/2018 0220 WHITFIELD, KEONTE JAMAL B M 18 18.2-178|[M] OBTAINING MONEY BY FALSE PRETENSES 2017011799
1/12/2018 0220 CLARK, TONY DEANGELO B M 43 18.2-266 DRIVING UNDER THE INFLUENCE OF ALCOHOL 2018000365
1/12/2018 0415 KING, KEYONTE GERROD B M 21 18.2-456 CONTEMPT OF COURT
1/12/2018 1215 GARY, JEROME LARCELL JR B M 48 16.1-278.16 FAIL TO COMPLY WITH SUPPORT OBLIGATIONS
1/12/2018 1430 LIGHTFOOT, DESIREE NICOLE B F 25 19.2-306|[F] REVOCATION OF SUSPENDED SENTENCE AND PROBATION
1/12/2018 1950 COPELAND, STERLING LAMONT B M 55 18.2-57.2|[M] ASSAULT & BATTERY - FAMILY MEMBER 2018000419
1/12/2018 1950 COPELAND, STERLING LAMONT B M 55 18.2-57.2|[M] ASSAULT & BATTERY - FAMILY MEMBER 2018000419
1/12/2018 2154 JEAN, REBECCA YVONNE W F 53 24-258 PUBLIC DRUNKENNESS 2018000426
1/12/2018 2:07:00 AM 0207 HARRIS, ANGELA CHRISTINA B F 33 19.2-306|[F] REVOCATION OF SUSPENDED SENTENCE AND PROBATION 9999248675
1/12/2018 2:07:00 AM 0207 HARRIS, ANGELA CHRISTINA B F 33 18.2-456 CONTEMPT OF COURT 9999248675
1/12/2018 2:07:00 AM 0207 HARRIS, ANGELA CHRISTINA B F 33 19.2-306|[F] REVOCATION OF SUSPENDED SENTENCE AND PROBATION 9999248675
1/12/2018 1:20:00 PM 1320 HAYWOOD, ANGELA DAWN W F 45 46.2-894 ACCIDENTS - HIT AND RUN RESULTING IN INJURY AND/OR DEATH [FE 2017014205
1/12/2018 1:20:00 PM 1320 HAYWOOD, ANGELA DAWN W F 45 46.2-894 ACCIDENTS - HIT AND RUN RESULTING IN INJURY AND/OR DEATH [FE 2017014205
1/13/2018 0032 HOFFMAN, STEVEN LEE W M 61 18.2-57.2|[M] ASSAULT & BATTERY - FAMILY MEMBER 2018000429
1/13/2018 0126 BELFIELD, JA`QUAN LAMAR B M 24 18.2-250.1 POSSESSION OF MARIJUANA 2018000431
1/13/2018 0630 RIDDICK, NOAH EDWIN W M 34 18.2-57.2|[F] ASSAULT & BATTERY - FAMILY MEMBER (3RD OFFENSE)
1/13/2018 0630 RIDDICK, NOAH EDWIN W M 34 18.2-47 ABDUCTION & KIDNAPPING
1/13/2018 0630 RIDDICK, NOAH EDWIN W M 34 16.1-253.2[M] PROTECTIVE ORDER: VIOLATION
1/13/2018 0630 RIDDICK, NOAH EDWIN W M 34 16.1-253.2[M] PROTECTIVE ORDER: VIOLATION
1/13/2018 0630 RIDDICK, NOAH EDWIN W M 34 16.1-253.2[M] PROTECTIVE ORDER: VIOLATION
1/13/2018 0630 RIDDICK, NOAH EDWIN W M 34 16.1-253.2[M] PROTECTIVE ORDER: VIOLATION
1/13/2018 0630 RIDDICK, NOAH EDWIN W M 34 16.1-253.2[M] PROTECTIVE ORDER: VIOLATION
1/13/2018 0954 SIMONDS, LILLIAN CLAIRE W F 20 18.2-250|[F] POSSESSION OF CONTROLLED SUBSTANCES 2018000437
1/13/2018 0954 SIMONDS, LILLIAN CLAIRE W F 20 46.2-852 RECKLESS - GENERAL 2018000437
1/13/2018 0954 SIMONDS, LILLIAN CLAIRE W F 20 4.1-305 UNLAWFUL PURCHASE OR POSSESS ALCOHOLIC BEVERAGE 2018000437
1/13/2018 0954 SIMONDS, LILLIAN CLAIRE W F 20 18.2-250|[F] POSSESSION OF CONTROLLED SUBSTANCES 2018000437
1/13/2018 1620 BAILEY, TIARA SHANA B F 29 18.2-172 FORGING, UTTERING
1/13/2018 1620 BAILEY, TIARA SHANA B F 29 18.2-172 FORGING, UTTERING
1/13/2018 1620 BAILEY, TIARA SHANA B F 29 18.2-178|[F] OBTAINING MONEY BY FALSE PRETENSES
1/13/2018 1620 BAILEY, TIARA SHANA B F 29 18.2-186.3 IDENTITY THEFT: USE TO AVOID ARREST
1/13/2018 1720 BRANDON, JOHN MICHAEL W M 62 18.2-248|[F] MANUF, SALE, POSSESSION CONTROLLED SUBSTANCE 2018000451
1/13/2018 1720 BRANDON, JOHN MICHAEL W M 62 18.2-255.2|[F] SALE OF DRUGS ON OR NEAR SCHOOL PROPERTY, LIBRARY 2018000451
1/13/2018 1825 CROSS, ROBERT ANDREW W M 47 18.2-102|[F] UNAUTHORIZED USE OF VEHICLE, BOAT OR ANIMAL 2018000387
1/13/2018 1825 CROSS, ROBERT ANDREW W M 47 18.2-95 GRAND LARCENY 2018000387
1/13/2018 2029 MATTHEWS, MARVIN LEE B M 56 18.2-456 CONTEMPT OF COURT
1/13/2018 2250 JEAN, REBECCA YVONNE W F 53 24-258 PUBLIC DRUNKENNESS 2018000469
1/13/2018 2:15:00 PM 1415 WINFIELD, RYAN DAREL B M 23 18.2-57.2|[M] ASSAULT & BATTERY - FAMILY MEMBER
1/14/2018 0411 DAVIS, HAROLD DESMOND JR B M 35 18.2-371.1 ABUSE AND NEGLECT OF CHILDREN 2018000471
1/14/2018 0411 DAVIS, HAROLD DESMOND JR B M 35 18.2-57.2|[M] ASSAULT & BATTERY - FAMILY MEMBER 2018000471
1/14/2018 0436 JEFFERSON-ARLINE, DORCAS RENEE B F 29 18.2-371.1 ABUSE AND NEGLECT OF CHILDREN 2018000471
1/14/2018 0436 JEFFERSON-ARLINE, DORCAS RENEE B F 29 18.2-57.2|[M] ASSAULT & BATTERY - FAMILY MEMBER 2018000471
1/14/2018 0742 TRUSTY, SHAUN COLIN B M 20 18.2-456 CONTEMPT OF COURT
1/14/2018 1030 MCDOUGLE, DERRICK TREMEL B M 47 19.2-306|[F] REVOCATION OF SUSPENDED SENTENCE AND PROBATION
1/14/2018 1215 HANSBURY, MARGARITA MARKETA SOTO B F 37 18.2-57.2|[M] ASSAULT & BATTERY - FAMILY MEMBER 2018000482
1/14/2018 1635 HARLEY, MATTHEW DOUGLAS B M 45 18.2-308|[M] CARRYING CONCEALED WEAPON -1ST OFFENSE 2018000490
1/14/2018 1930 TABRON, GRADY LEE B M 65 18.2-119 TRESPASSING 2018000500
1/14/2018 1930 TABRON, GRADY LEE B M 65 24-258 PUBLIC DRUNKENNESS 2018000500
1/15/2018 0240 JEAN, REBECCA YVONNE W F 53 24-258 PUBLIC DRUNKENNESS 2018000509
1/15/2018 0244 WHITEHURST, STEPHEN LEE W M 38 18.2-95 GRAND LARCENY 2017015019
1/15/2018 0244 WHITEHURST, STEPHEN LEE W M 38 18.2-108.01 STOLEN PROPERTY: W/ INTENT TO SELL, LARC 2017015019
1/15/2018 0244 WHITEHURST, STEPHEN LEE W M 38 18.2-178|[M] OBTAINING MONEY BY FALSE PRETENSES 2017015019
1/15/2018 0252 KIDD, JESSICA YVONNE B F 31 18.2-266|[M] DRIVING UNDER THE INFLUENCE OF ALCOHOL 2018000508
1/15/2018 0252 KIDD, JESSICA YVONNE B F 31 18.2-272[M] DRIVING AFTER FORFEITURE OF LICENSE 2018000508
1/15/2018 0252 KIDD, JESSICA YVONNE B F 31 46.2-613 VEHICLE REGISTRATION VIOLATIONS 2018000508
1/15/2018 0252 KIDD, JESSICA YVONNE B F 31 46.2-613 VEHICLE REGISTRATION VIOLATIONS 2018000508
1/15/2018 1233 KITCHEN, RONALD LEE JR W M 36 18.2-56.1 RECKLESS HANDLING OF FIREARM 2017017364
1/15/2018 1233 KITCHEN, RONALD LEE JR W M 36 18.2-308.2 POSSESS, TRANSPORT FIREARMS BY CONVICTED 2017017364
1/15/2018 10:45:00 AM 1045 WALKER, CHRISTOPHER DONNELL DONTE` B M 26 18.2-57.2|[M] ASSAULT & BATTERY - FAMILY MEMBER 2018000196
1/16/2018 0033 ELLIS, SHAWN LUMAR B M 50 18.2-51 FELONIOUS ASSAULT 2018000541
1/16/2018 0324 CARUSO, JEREMY SETH W M 36 18.2-57|[M] ASSAULT & BATTERY 2018000546
1/16/2018 0930 COLEY, SHELTON LEON III B M 21 46.2-894 ACCIDENTS - HIT AND RUN RESULTING IN INJURY AND/OR DEATH [FE
1/16/2018 0945 GRANT, WILLIAM WARNER JR B M 60 18.2-456 CONTEMPT OF COURT
1/16/2018 1223 ALVIN, CURTISTINE GLOVER B F 59 19.2-306|[F] REVOCATION OF SUSPENDED SENTENCE AND PROBATION
1/16/2018 1223 ALVIN, CURTISTINE GLOVER B F 59 19.2-306|[F] REVOCATION OF SUSPENDED SENTENCE AND PROBATION
1/16/2018 1235 WYATT, CAROLYN MARIE B F 61 18.2-57|[M] ASSAULT & BATTERY
1/16/2018 1347 HALL-RANDALL, DIMANTRE LASHAWN B M 19 18.2-146 TAMPERING WITH VEHICLE
1/16/2018 1347 HALL-RANDALL, DIMANTRE LASHAWN B M 19 18.2-146 TAMPERING WITH VEHICLE
1/16/2018 1347 HALL-RANDALL, DIMANTRE LASHAWN B M 19 18.2-146 TAMPERING WITH VEHICLE
1/16/2018 1347 HALL-RANDALL, DIMANTRE LASHAWN B M 19 18.2-146 TAMPERING WITH VEHICLE
1/16/2018 1347 HALL-RANDALL, DIMANTRE LASHAWN B M 19 18.2-146 TAMPERING WITH VEHICLE
1/16/2018 1347 HALL-RANDALL, DIMANTRE LASHAWN B M 19 18.2-146 TAMPERING WITH VEHICLE
1/16/2018 1500 JORDAN, ANTONIO JERMAINE SR B M 44 46.2-894 ACCIDENTS - HIT AND RUN RESULTING IN INJURY AND/OR DEATH [FE
1/16/2018 1600 WHITEHURST, JAMES CLARKE III B M 26 18.2-95 GRAND LARCENY
1/16/2018 1600 WHITEHURST, JAMES CLARKE III B M 26 18.2-95 GRAND LARCENY
1/16/2018 1600 WHITEHURST, JAMES CLARKE III B M 26 18.2-95 GRAND LARCENY
1/16/2018 1600 WHITEHURST, JAMES CLARKE III B M 26 18.2-108.01 STOLEN PROPERTY: W/ INTENT TO SELL, LARCENY>$200
1/16/2018 1600 WHITEHURST, JAMES CLARKE III B M 26 18.2-103|[F] CONCEALMENT, PRICE ALTER MERCHANDISE >=$200
1/16/2018 1600 WHITEHURST, JAMES CLARKE III B M 26 18.2-108.01 STOLEN PROPERTY: W/ INTENT TO SELL, LARCENY>$200
1/16/2018 1600 WHITEHURST, JAMES CLARKE III B M 26 18.2-108.01 STOLEN PROPERTY: W/ INTENT TO SELL, LARCENY>$200
1/16/2018 1600 WHITEHURST, JAMES CLARKE III B M 26 18.2-103|[F] CONCEALMENT, PRICE ALTER MERCHANDISE >=$200
1/16/2018 1707 WRIGHT, MANU WALTER B M 38 COURTESY COURTESY HOLD 9999248679
1/16/2018 1746 HOLLEY, JAMES LAMONT B M 28 18.2-57|[M] ASSAULT & BATTERY
1/16/2018 1746 HOLLEY, JAMES LAMONT B M 28 18.2-137|[M] DESTRUCTION OF PROPERTY, GENERAL
1/16/2018 2117 FREDERICK, MICHAEL CHRISTIAN W M 32 18.2-95 GRAND LARCENY 2017015321
1/16/2018 2117 FREDERICK, MICHAEL CHRISTIAN W M 32 18.2-108.01 STOLEN PROPERTY: W/ INTENT TO SELL, LARCENY>$200 2017015321
1/16/2018 2117 FREDERICK, MICHAEL CHRISTIAN W M 32 18.2-178|[F] OBTAINING MONEY BY FALSE PRETENSES 2017015321
1/16/2018 2154 HURDLE, ESPER LONDON JR B M 63 19.2-306|[F] REVOCATION OF SUSPENDED SENTENCE AND PROBATION
1/16/2018 2259 TAUTE, ANGELO W M 19 18.2-57.2|[M] ASSAULT & BATTERY - FAMILY MEMBER 2017013151
1/16/2018 11:22:00 AM 1122 LAMB, ANDREA ROBIN B F 50 19.2-128|[F] FAIL TO APPEAR ON FELONY CHARGE
1/17/2018 0004 MILLS, JOHN MARCUS KENDALL B M 35 16.1-253.2[M] PROTECTIVE ORDER: VIOLATION 2018000581
1/17/2018 0040 HANNON, JAMES PHILLIP W M 48 18.2-57|[F] ASSAULT & BATTERY 2018000580
1/17/2018 0040 HANNON, JAMES PHILLIP W M 48 18.2-57|[F] ASSAULT & BATTERY 2018000580
1/17/2018 0040 HANNON, JAMES PHILLIP W M 48 18.2-137|[F] DESTRUCTION OF PROPERTY GENERAL -VALUE >=$1000 2018000580
1/17/2018 0040 HANNON, JAMES PHILLIP W M 48 18.2-250.1 POSSESSION OF MARIJUANA 2018000580
1/17/2018 0110 STEPHENS, DONTE LASHAWN B M 27 18.2-456 CONTEMPT OF COURT
1/17/2018 0451 BRANCH, CAMREN MOLLIE B F 24 18.2-57.2|[M] ASSAULT & BATTERY - FAMILY MEMBER 2018000593
1/17/2018 0527 GHOLSTON, DOMINIC BERNARD B M 24 18.2-57.2|[M] ASSAULT & BATTERY - FAMILY MEMBER 2018000593
1/17/2018 0825 RUSSELL, CURTIS LINWOOD W M 53 18.2-456 CONTEMPT OF COURT
1/17/2018 0840 CHESSON, TIMOTHY ANGELO B M 48 46.2-301 DRIVING W/SUSPENDED OR REVOKED LICENSE 9999248906
1/17/2018 0840 CHESSON, TIMOTHY ANGELO B M 48 46.2-817|[F] ELUDING POLICE - ENDANGER PERSONS OR POLICE CAR 9999248906
1/17/2018 1115 SCARBOROUGH, RALPHFEL LAMONT B M 39 18.2-456 CONTEMPT OF COURT
1/17/2018 1134 MCCOY, DONALD FRAZIER B M 50 18.2-456 CONTEMPT OF COURT
1/17/2018 1134 CREW, KEITH B M 49 18.2-456 CONTEMPT OF COURT
1/17/2018 1140 MCLEAN, CHRISTOPHER ERIC B M 29 18.2-456 CONTEMPT OF COURT
1/17/2018 1224 BATTLE, ELVIN THOMAS B M 54 18.2-456 CONTEMPT OF COURT
1/17/2018 1225 ALEANDRO, BETH LEIGH W F 37 18.2-308.2:2|[F] FIREARM PURCHASE OR DEALER VIOLATION
1/17/2018 1230 WHITE, DANIELLE NICOLE B F 34 18.2-119 TRESPASSING 2018000606
1/17/2018 1230 WHITE, DANIELLE NICOLE B F 34 24-258 PUBLIC DRUNKENNESS 2018000606
1/17/2018 1420 WESBY, CRYSTAL NICOLE B F 34 19.2-128|[M] FAIL TO APPEAR ON MISDEMEANOR CHARGE
1/17/2018 1420 WESBY, CRYSTAL NICOLE B F 34 19.2-306|[M] REVOCATION OF SUSPENDED SENTENCE AND PROBATION
1/17/2018 1420 WESBY, CRYSTAL NICOLE B F 34 19.2-306|[M] REVOCATION OF SUSPENDED SENTENCE AND PROBATION
1/17/2018 1524 GILDON, JOSHUA HARRIS W M 30 18.2-250|[F] POSSESSION OF CONTROLLED SUBSTANCES 2018000312
1/17/2018 1524 GILDON, JOSHUA HARRIS W M 30 18.2-250.1 POSSESSION OF MARIJUANA 2018000312
1/17/2018 1524 GILDON, JOSHUA HARRIS W M 30 54.1-3466 POSSESS, DISTRIBUTE CONTROLLED PARAPHERNALIA 2018000312
1/17/2018 1524 GILDON, JOSHUA HARRIS W M 30 46.2-1003 USE UNSAFE EQUIPMENT 2018000312
1/17/2018 1625 CANDRILLI, JONATHAN ALEXANDRER W M 32 19.2-306|[M] REVOCATION OF SUSPENDED SENTENCE AND PROBATION
1/17/2018 1625 CANDRILLI, JONATHAN ALEXANDRER W M 32 19.2-306|[M] REVOCATION OF SUSPENDED SENTENCE AND PROBATION
1/17/2018 1740 MITCHELL, WARDAIN DONALD B M 22 18.2-456 CONTEMPT OF COURT
1/17/2018 1740 MITCHELL, WARDAIN DONALD B M 22 18.2-456 CONTEMPT OF COURT
1/17/2018 2000 WRIGHT, ROBERT OSBOURNE B M 42 19.2-128|[F] FAIL TO APPEAR ON FELONY CHARGE
1/17/2018 2256 OLIVER, ROBERT KEITH JR W M 35 18.2-95 GRAND LARCENY 2018000622
1/17/2018 2256 OLIVER, ROBERT KEITH JR W M 35 18.2-250|[F] POSSESSION OF CONTROLLED SUBSTANCES 2018000622
1/17/2018 2256 OLIVER, ROBERT KEITH JR W M 35 18.2-456 CONTEMPT OF COURT
1/17/2018 2322 RISI, CAROL-LYNN JENNIFER W F 59 18.2-250|[F] POSSESSION OF CONTROLLED SUBSTANCES 2018000629
1/17/2018 2353 HENTON, AARON XAVIER B M 31 18.2-250|[F] POSSESSION OF CONTROLLED SUBSTANCES 2018000629
1/17/2018 2353 HENTON, AARON XAVIER B M 31 18.2-460[M] OBSTRUCT/RESIST 2018000629
1/17/2018 12:42:00 PM 1242 MILLER, RYAN OMAR B M 26 18.2-51 FELONIOUS ASSAULT 2018000492
1/18/2018 0323 MASSENBURG, TRAVON MARQUIS B M 32 18.2-456 CONTEMPT OF COURT
1/18/2018 1120 FREEMAN, NATHANIEL LEE B M 38 18.2-456 CONTEMPT OF COURT
1/18/2018 1410 SEWARD, DEWANNA MARKITA B F 27 18.2-137|[M] DESTRUCTION OF PROPERTY, GENERAL 2017007344
1/18/2018 1505 LIGHTFOOT, JOSEPH CORBETT B M 26 18.2-57|[M] ASSAULT & BATTERY 2015010691
1/18/2018 1505 LIGHTFOOT, JOSEPH CORBETT B M 26 18.2-95 GRAND LARCENY 2015010691
1/18/2018 1620 HARRIS, TOREYEN OCTAVIUS B M 25 18.2-57|[M] ASSAULT & BATTERY 2018000399
1/18/2018 1745 HILL, TERRY KIM B F 54 18.2-57|[M] ASSAULT & BATTERY
1/18/2018 1828 JEFFERSON-ARLINE, DORCAS RENEE B F 29 16.1-253.2[M] PROTECTIVE ORDER: VIOLATION
1/18/2018 9:00:00 AM 0900 WATKINS, JALISA MICHELLE B F 29 18.2-51 FELONIOUS ASSAULT 2017016589
1/18/2018 12:13:00 PM 1216 LOPEZ, RAUL W M 25 18.2-57|[M] ASSAULT & BATTERY 2018000623
1/18/2018 12:13:00 PM 1216 LOPEZ, RAUL W M 25 18.2-427 PROFANE, THREATENING LANGUAGE OVER PUBLIC AIRWAY 2018000623
1/18/2018 12:13:00 PM 1216 LOPEZ, RAUL W M 25 18.2-429 ANNOYING PHONE CALLS 2018000623
1/18/2018 6:00:00 PM 1800 WATKINS, JALISA MICHELLE B F 29 18.2-51 FELONIOUS ASSAULT
1/18/2018 11:15:00 PM 2315 MCLEN, LAWRENCE DWAYNE B M 36 18.2-456 CONTEMPT OF COURT 9999248727
1/19/2018 0155 OWENS, KENDRES LAMONT B M 38 18.2-456 CONTEMPT OF COURT 9999248777
1/19/2018 0205 ROSS, DAVID B M 48 18.2-83|[F] THREATS TO BOMB OR DAMAGE BUILDING 2018000678
1/19/2018 1047 DAVIS, AMIR IDRIS B M 33 18.2-96|[F] LARCENY OR THEFT (3RD OR SUBSQ OFFENSE) 2018000688
1/19/2018 1200 WILSON, JAMES CALVIN B M 20 18.2-57.2|[M] ASSAULT & BATTERY - FAMILY MEMBER
1/19/2018 1200 WILSON, JAMES CALVIN B M 20 18.2-137|[M] DESTRUCTION OF PROPERTY, GENERAL
1/19/2018 1311 MACKEY, MARJORIE LOUISE B F 66 18.2-456 CONTEMPT OF COURT
1/19/2018 1400 LANGSTON, MARTINA M B F 37 18.2-57.2|[M] ASSAULT & BATTERY - FAMILY MEMBER
1/19/2018 1405 JOHNSTON, ANDREW JAMES IV W M 51 18.2-58 ROBBERY 2017012267
1/19/2018 1538 MITCHELL, MICHAEL ANTIONE JR B M 18 18.2-479.1 FLEEING FROM LAW ENFORCEMENT OFFICER 2018000698
1/19/2018 1538 MITCHELL, MICHAEL ANTIONE JR B M 18 18.2-308.2 POSSESS, TRANSPORT FIREARMS BY CONVICTED FELONS 2018000698
1/19/2018 1700 BROWN, CHANTIKA CHAWNTIARA B F 29 18.2-308.2:2|[F] FIREARM PURCHASE OR DEALER VIOLATION
1/19/2018 1737 WILSON, EDWARD FREDRICK SANFOR B M 38 18.2-456 CONTEMPT OF COURT
1/19/2018 1737 WILSON, EDWARD FREDRICK SANFOR B M 38 19.2-128|[M] FAIL TO APPEAR ON MISDEMEANOR CHARGE
1/19/2018 1737 WILSON, EDWARD FREDRICK SANFOR B M 38 19.2-128|[M] FAIL TO APPEAR ON MISDEMEANOR CHARGE
1/19/2018 1737 WILSON, EDWARD FREDRICK SANFOR B M 38 18.2-456 CONTEMPT OF COURT
1/19/2018 1737 WILSON, EDWARD FREDRICK SANFOR B M 38 18.2-51 FELONIOUS ASSAULT 2013013144
1/19/2018 1737 WILSON, EDWARD FREDRICK SANFOR B M 38 18.2-58 ROBBERY 2013013144
1/19/2018 1949 MARRON, TRACY TURNER W M 36 18.2-95 GRAND LARCENY
1/19/2018 1957 SMITH, ROBERT LEE B M 33 18.2-456 CONTEMPT OF COURT
1/19/2018 2009 COX, TROY EMANUEL SR B M 36 18.2-58 ROBBERY 2017014836
1/19/2018 2009 COX, TROY EMANUEL SR B M 36 18.2-308|[F] CARRYING CONCEALED WEAPON -SUBSQ OFFENSE 2018000714
1/19/2018 2036 PETIT-HOMME, MARCEUNE B M 39 18.2-178|[F] OBTAINING MONEY BY FALSE PRETENSES
1/19/2018 2045 DAVIS, HAROLD DESMOND JR B M 35 18.2-57.2|[M] ASSAULT & BATTERY - FAMILY MEMBER
1/19/2018 2054 NORMAN, VENISA LADONNA B F 50 18.2-456 CONTEMPT OF COURT 9999248733
1/19/2018 2200 MABRY, CLAYTON RAYNELL B M 37 18.2-248|[F] MANUF, SALE, POSSESSION CONTROLLED SUBSTANCE 2017009729
1/19/2018 2300 SLAUGHTER, ROBERT SAMUEL W M 48 18.2-53.1 USE OR DISPLAY FIREARM IN COMMISSION OF FELONY 2018000718
1/19/2018 2300 SLAUGHTER, ROBERT SAMUEL W M 48 18.2-308.2 POSSESS, TRANSPORT FIREARMS BY CONVICTED FELONS 2018000718
1/19/2018 2300 SLAUGHTER, ROBERT SAMUEL W M 48 18.2-57.2|[M] ASSAULT & BATTERY - FAMILY MEMBER 2018000718
1/19/2018 2300 SLAUGHTER, ROBERT SAMUEL W M 48 18.2-26 ATTEMPT TO COMMIT NONCAPITAL OFFENSE 2018000718
1/20/2018 0001 WILLIAMS, TASHAWN RASHARD B M 26 18.2-57.2|[M] ASSAULT & BATTERY - FAMILY MEMBER 2018000731
1/20/2018 0910 STEPHENS, LAMONT JAMAL B M 26 19.2-306|[F] REVOCATION OF SUSPENDED SENTENCE AND PROBATION
1/20/2018 1511 RODGERS, MICHAEL ANTWAN B M 33 18.2-51 FELONIOUS ASSAULT 2018000750
1/20/2018 1511 RODGERS, MICHAEL ANTWAN B M 33 18.2-67.2 OBJECT SEXUAL PENETRATION 2018000750
1/20/2018 1511 RODGERS, MICHAEL ANTWAN B M 33 19.2-306|[F] REVOCATION OF SUSPENDED SENTENCE AND PROBATION
1/20/2018 1511 RODGERS, MICHAEL ANTWAN B M 33 18.2-456 CONTEMPT OF COURT
1/20/2018 1849 MORRIS, GILBERT WAYNE W M 67 24-258 PUBLIC DRUNKENNESS 2018000763
1/20/2018 1908 TROWER, CHARLES JAMES WALLACE B M 32 18.2-60|[F] THREATS OF DEATH OR BODILY INJURY BY LETTER
1/20/2018 1908 TROWER, CHARLES JAMES WALLACE B M 32 18.2-427 PROFANE, THREATENING LANGUAGE OVER PUBLIC AIRWAY
1/20/2018 2324 PORTER, TREVAUGHN SYLVESTER B M 22 18.2-456 CONTEMPT OF COURT
1/20/2018 2324 PORTER, TREVAUGHN SYLVESTER B M 22 19.2-306|[F] REVOCATION OF SUSPENDED SENTENCE AND PROBATION
1/20/2018 2324 PORTER, TREVAUGHN SYLVESTER B M 22 18.2-308.2 POSSESS, TRANSPORT FIREARMS BY CONVICTED FELONS 2018000765
1/20/2018 2324 PORTER, TREVAUGHN SYLVESTER B M 22 18.2-308|[M] CARRYING CONCEALED WEAPON -1ST OFFENSE 2018000765
1/20/2018 2324 PORTER, TREVAUGHN SYLVESTER B M 22 18.2-460[M] OBSTRUCT/RESIST 2018000765
1/20/2018 2324 PORTER, TREVAUGHN SYLVESTER B M 22 18.2-250.1 POSSESSION OF MARIJUANA 2018000765
1/20/2018 2327 SCOTT, SHAWN EUGENE B M 22 18.2-57|[F] ASSAULT & BATTERY 2018000765
1/20/2018 2327 SCOTT, SHAWN EUGENE B M 22 18.2-57|[F] ASSAULT & BATTERY 2018000765
1/20/2018 2327 SCOTT, SHAWN EUGENE B M 22 18.2-250.1 POSSESSION OF MARIJUANA 2018000765
1/20/2018 2327 SCOTT, SHAWN EUGENE B M 22 18.2-460[M] OBSTRUCT/RESIST 2018000765
1/20/2018 2327 SCOTT, SHAWN EUGENE B M 22 18.2-479.1 FLEEING FROM LAW ENFORCEMENT OFFICER 2018000765
1/20/2018 2354 JEAN, REBECCA YVONNE W F 53 24-258 PUBLIC DRUNKENNESS
1/21/2018 0505 STAMBAUGH, MADDISON HAZEL W F 22 18.2-57.2|[M] ASSAULT & BATTERY - FAMILY MEMBER 2018000783
1/21/2018 0518 JACKSON, RODNEY LEE JR B M 25 18.2-108.01 STOLEN PROPERTY: W/ INTENT TO SELL, LARCENY>$200
1/21/2018 0518 JACKSON, RODNEY LEE JR B M 25 18.2-23 CONSPIRING TO TRESPASS OR COMMIT LARCENY
1/21/2018 0518 JACKSON, RODNEY LEE JR B M 25 18.2-95 GRAND LARCENY
1/21/2018 0759 GATLING, QUENTIN CHRISTOPHER JR B M 20 18.2-58 ROBBERY 2018000479
1/21/2018 0759 GATLING, QUENTIN CHRISTOPHER JR B M 20 18.2-53.1 USE OR DISPLAY FIREARM IN COMMISSION OF FELONY 2018000479
1/21/2018 0759 GATLING, QUENTIN CHRISTOPHER JR B M 20 18.2-95 GRAND LARCENY 2018000479
1/21/2018 0905 MILLS, ERNEST LEE B M 59 18.2-456 CONTEMPT OF COURT
1/21/2018 0905 MILLS, ERNEST LEE B M 59 18.2-456 CONTEMPT OF COURT
1/21/2018 0911 JOHNSON, ZAVIER TYRONE ALLEN III B M 22 46.2-301 DRIVING W/SUSPENDED OR REVOKED LICENSE 2018000784
1/21/2018 0911 JOHNSON, ZAVIER TYRONE ALLEN III B M 22 18.2-95 GRAND LARCENY 2018000784
1/21/2018 0911 JOHNSON, ZAVIER TYRONE ALLEN III B M 22 18.2-137|[F] DESTRUCTION OF PROPERTY GENERAL -VALUE >=$1000 2018000784
1/21/2018 0911 JOHNSON, ZAVIER TYRONE ALLEN III B M 22 46.2-817|[F] ELUDING POLICE - ENDANGER PERSONS OR POLICE CAR 2018000784
1/21/2018 0911 JOHNSON, ZAVIER TYRONE ALLEN III B M 22 18.2-266 DRIVING UNDER THE INFLUENCE OF ALCOHOL 2018000784
1/21/2018 1742 BRADSHAW, GABRIELL MONIQUE B F 19 19.2-306|[F] REVOCATION OF SUSPENDED SENTENCE AND PROBATION
1/21/2018 1742 BRADSHAW, GABRIELL MONIQUE B F 19 19.2-306|[F] REVOCATION OF SUSPENDED SENTENCE AND PROBATION
1/21/2018 1742 BRADSHAW, GABRIELL MONIQUE B F 19 19.2-306|[F] REVOCATION OF SUSPENDED SENTENCE AND PROBATION
1/21/2018 1923 JEAN, REBECCA YVONNE W F 53 24-258 PUBLIC DRUNKENNESS 2018000801
1/21/2018 2355 UNLU, JORDAN SERTKAN B M 24 18.2-137|[F] DESTRUCTION OF PROPERTY GENERAL -VALUE >=$1000
1/21/2018 2355 UNLU, JORDAN SERTKAN B M 24 18.2-137|[M] DESTRUCTION OF PROPERTY, GENERAL
1/21/2018 2355 UNLU, JORDAN SERTKAN B M 24 18.2-137|[M] DESTRUCTION OF PROPERTY, GENERAL
1/21/2018 2355 UNLU, JORDAN SERTKAN B M 24 18.2-137|[M] DESTRUCTION OF PROPERTY, GENERAL
1/21/2018 2355 UNLU, JORDAN SERTKAN B M 24 18.2-137|[M] DESTRUCTION OF PROPERTY, GENERAL
1/21/2018 2358 HINTON, ANTIONNE ANTHONY B M 34 18.2-456 CONTEMPT OF COURT
1/21/2018 2358 GREGORY, JOHN EDWARD B M 65 19.2-99|[F] FUGITIVE FROM JUSTICE 2018000806
1/22/2018 0059 JONES, KIMBERLY YVONNE B F 38 18.2-266 DRIVING UNDER THE INFLUENCE OF ALCOHOL 2018000808
1/22/2018 0219 HINTON, ANTIONNE ANTHONY B M 34 18.2-19 ACCESSORY AFTER THE FACT IN FELONY
1/22/2018 0451 ARTIS, NYISHA JANAE B F 28 18.2-456 CONTEMPT OF COURT
1/22/2018 0830 WALKER, SAMMY DORON B M 41 18.2-193 CREDIT CARD FORGERY
1/22/2018 0830 WALKER, SAMMY DORON B M 41 18.2-193 CREDIT CARD FORGERY
1/22/2018 0945 HARRIS, VANESSA LENISHA B F 29 18.2-57.2|[M] ASSAULT & BATTERY - FAMILY MEMBER 2018000817
1/22/2018 0952 WALLACE, DAVON DEANGELO B M 32 19.2-306|[F] REVOCATION OF SUSPENDED SENTENCE AND PROBATION
1/22/2018 1223 PERRY, GLENN JR B M 31 18.2-456 CONTEMPT OF COURT
1/22/2018 1223 PERRY, GLENN JR B M 31 16.1-278.16 FAIL TO COMPLY WITH SUPPORT OBLIGATIONS
1/22/2018 1310 FEREBEE, ANTIA DIANE B F 38 18.2-456 CONTEMPT OF COURT
1/22/2018 1355 WILLIAMS, FELICIA RENEE-BROWN B F 50 18.2-456 CONTEMPT OF COURT
1/22/2018 1505 LEWIS, KELSEY JAY SR B M 45 19.2-306|[F] REVOCATION OF SUSPENDED SENTENCE AND PROBATION
1/22/2018 1505 LEWIS, KELSEY JAY SR B M 45 19.2-306|[F] REVOCATION OF SUSPENDED SENTENCE AND PROBATION
1/22/2018 1505 LEWIS, KELSEY JAY SR B M 45 19.2-306|[F] REVOCATION OF SUSPENDED SENTENCE AND PROBATION
1/22/2018 1505 LEWIS, KELSEY JAY SR B M 45 19.2-306|[F] REVOCATION OF SUSPENDED SENTENCE AND PROBATION
1/22/2018 1515 JEAN, REBECCA YVONNE W F 53 24-258 PUBLIC DRUNKENNESS 2018000829
1/22/2018 1645 BRANCH, DEMETRIUS DANTE B M 35 18.2-456 CONTEMPT OF COURT
1/22/2018 1940 TYSON, TYSHEA KABREE B F 20 18.2-57|[M] ASSAULT & BATTERY 2018000846
1/22/2018 2015 WHITE, DEANNA NICHOLE B F 24 18.2-57|[M] ASSAULT & BATTERY 2018000846
1/22/2018 2045 EMMANUEL, TAHMIR B M 19 18.2-460[M] OBSTRUCT/RESIST 2018000846
1/22/2018 2105 JOHNSTON, VICKIE FAYE W F 56 24-258 PUBLIC DRUNKENNESS 2018000844
1/23/2018 0201 CUFFEE, WILLIE SHAUNTE B M 36 18.2-456 CONTEMPT OF COURT
1/23/2018 0900 POWELL, TISHON B M 23 46.2-852 RECKLESS - GENERAL
1/23/2018 1022 WYNN, KATERIA TYVONDA B F 22 18.2-137|[M] DESTRUCTION OF PROPERTY, GENERAL 2018000862
1/23/2018 1200 KNIGHT, MARLON DONTE B M 40 19.2-306|[F] REVOCATION OF SUSPENDED SENTENCE AND PROBATION 9999248907
1/23/2018 1200 KNIGHT, MARLON DONTE B M 40 19.2-306|[F] REVOCATION OF SUSPENDED SENTENCE AND PROBATION 9999248907
1/23/2018 1220 FEREBEE, TATIANA ALEXIA B F 18 18.2-456 CONTEMPT OF COURT
1/23/2018 1234 STILT, CHRISTIAN B M 26 18.2-96|[M] PETIT LARCENY 2018000874
1/23/2018 1240 ERVIN, DIAMOND JAVON B F 18 18.2-57|[M] ASSAULT & BATTERY 2018000796
1/23/2018 1315 CLARK, TORBISAU DEMETRIUS B M 27 18.2-456 CONTEMPT OF COURT
1/23/2018 1350 LARRY, CARL III B M 29 18.2-456 CONTEMPT OF COURT
1/23/2018 1410 BARKSDALE, LECALVIN TRAYUAIL B M 19 18.2-26 ATTEMPT TO COMMIT NONCAPITAL OFFENSE 2018000504
1/23/2018 1410 BARKSDALE, LECALVIN TRAYUAIL B M 19 18.2-53.1 USE OR DISPLAY FIREARM IN COMMISSION OF 2018000504
1/23/2018 1410 BARKSDALE, LECALVIN TRAYUAIL B M 19 18.2-51.2 AGGRAVATED MALICIOUS WOUNDING 2018000504
1/23/2018 1410 BARKSDALE, LECALVIN TRAYUAIL B M 19 18.2-308|[M] CARRYING CONCEALED WEAPON -1ST OFFENSE 2018000869
1/23/2018 1410 BARKSDALE, LECALVIN TRAYUAIL B M 19 18.2-250.1 POSSESSION OF MARIJUANA 2018000869
1/23/2018 1421 SHERROD, DEON FREDERICK B M 23 18.2-96|[M] PETIT LARCENY 2017017376
1/23/2018 1421 SHERROD, DEON FREDERICK B M 23 18.2-57|[M] ASSAULT & BATTERY 2017017376
1/23/2018 1500 ROULHAC, JOHN WILSON JR B M 53 24-253 ALCOHOL - OPEN CONTAINER OF AN ALCOHOLIC BEVERAGE IN ANY PUB 2018000880
1/23/2018 1520 STITT, CHRISTIAN JAYANETTI B M 26 19.2-306|[F] REVOCATION OF SUSPENDED SENTENCE AND PROBATION
1/23/2018 1520 STITT, CHRISTIAN JAYANETTI B M 26 19.2-306|[F] REVOCATION OF SUSPENDED SENTENCE AND PROBATION
1/23/2018 1610 TURNER, DONTERRIOUS DEMONTREA B M 37 19.2-306|[F] REVOCATION OF SUSPENDED SENTENCE AND PROBATION
1/23/2018 1650 PINTO, ALEXANDER KANE W M 24 18.2-57|[F] ASSAULT & BATTERY 2018000271
1/23/2018 1710 VELEZ, JESSICA MARIE W F 35 18.2-111|[F] EMBEZZLEMENT >=$200 2017007939
1/23/2018 1710 VELEZ, JESSICA MARIE W F 35 18.2-111|[F] EMBEZZLEMENT >=$200 2017007939
1/23/2018 1710 VELEZ, JESSICA MARIE W F 35 18.2-111|[F] EMBEZZLEMENT >=$200 2017007939
1/23/2018 1710 VELEZ, JESSICA MARIE W F 35 18.2-111|[F] EMBEZZLEMENT >=$200 2017007939
1/23/2018 1710 VELEZ, JESSICA MARIE W F 35 18.2-111|[F] EMBEZZLEMENT >=$200 2017007939
1/23/2018 1710 VELEZ, JESSICA MARIE W F 35 18.2-111|[F] EMBEZZLEMENT >=$200 2017007939
1/23/2018 1710 VELEZ, JESSICA MARIE W F 35 18.2-111|[F] EMBEZZLEMENT >=$200 2017007939
1/23/2018 1745 CLEMON, PHARONDUS MOLIK B M 44 18.2-456 CONTEMPT OF COURT
1/23/2018 1754 ARMSTRONG, NICHOLAS SCOTECE W M 31 18.2-57|[M] ASSAULT & BATTERY 2018000884
1/23/2018 1845 LEE, DANYELLE AKOYA B M 37 18.2-456 CONTEMPT OF COURT 9999248873
1/23/2018 1855 ORR, DAVID JASON W M 43 54.1-3466 POSSESS, DISTRIBUTE CONTROLLED PARAPHERNALIA 2018000877
1/23/2018 1855 ORR, DAVID JASON W M 43 18.2-250|[F] POSSESSION OF CONTROLLED SUBSTANCES 2018000877
1/23/2018 1855 ORR, DAVID JASON W M 43 18.2-248|[F] MANUF, SALE, POSSESSION CONTROLLED SUBSTANCE 2018000877
1/23/2018 1855 ORR, DAVID JASON W M 43 18.2-23 CONSPIRING TO TRESPASS OR COMMIT LARCENY
1/23/2018 1855 ORR, DAVID JASON W M 43 18.2-23 CONSPIRING TO TRESPASS OR COMMIT LARCENY
1/23/2018 1855 ORR, DAVID JASON W M 43 18.2-95 GRAND LARCENY
1/23/2018 1855 ORR, DAVID JASON W M 43 18.2-178|[F] OBTAINING MONEY BY FALSE PRETENSES
1/23/2018 1855 ORR, DAVID JASON W M 43 18.2-108.01 STOLEN PROPERTY: W/ INTENT TO SELL, LARCENY>$200
1/23/2018 1923 JOHNSON, VERNON LEE B M 47 18.2-250|[F] POSSESSION OF CONTROLLED SUBSTANCES 2018000877
1/23/2018 1923 JOHNSON, VERNON LEE B M 47 18.2-256|[F] CONSPIRACY TO VIOLATE DRUG CONTROL ACT -FELONY 2018000877
1/23/2018 2124 BARNETT, DAMIEN GLEN B M 33 18.2-57.2|[M] ASSAULT & BATTERY - FAMILY MEMBER 2018000896
1/23/2018 2234 ALLEN, DEVON MITCHELL W M 26 18.2-479.1 FLEEING FROM LAW ENFORCEMENT OFFICER 2018000893
1/23/2018 2234 ALLEN, DEVON MITCHELL W M 26 18.2-250.1 POSSESSION OF MARIJUANA 2018000893
1/23/2018 2335 BARNETT, DASHEVA VALENE B F 32 18.2-57.2|[M] ASSAULT & BATTERY - FAMILY MEMBER 2018000896
1/23/2018 7:11:00 AM 0711 OUTTEN, KATHERINE NICOLE W F 29 18.2-57|[M] ASSAULT & BATTERY
1/23/2018 10:33:00 AM 1033 EATON, ALBERT GLENN JR W M 29 19.2-306|[M] REVOCATION OF SUSPENDED SENTENCE AND PROBATION 9999248883
1/23/2018 6:15:00 PM 1815 SABO, ERIC GERARD JR W M 24 18.2-57|[M] ASSAULT & BATTERY 2018000860
1/23/2018 7:55:00 PM 1955 RINGER, KRISTI MARIE W F 45 18.2-57.2|[M] ASSAULT & BATTERY - FAMILY MEMBER
1/24/2018 0505 BLOW, JAVON DONTERIO B M 27 18.2-51 FELONIOUS ASSAULT 2018000895
1/24/2018 0505 GENEREUX, ROLAND FRANK W M 29 24-258 PUBLIC DRUNKENNESS 2018000899
1/24/2018 0930 BROADNAX, TONIKA MYCHELL B F 26 18.2-456 CONTEMPT OF COURT
1/24/2018 1010 SPARKS, SHAUN LAMONT B M 39 19.2-306|[F] REVOCATION OF SUSPENDED SENTENCE AND PROBATION
1/24/2018 1010 SPARKS, SHAUN LAMONT B M 39 19.2-306|[F] REVOCATION OF SUSPENDED SENTENCE AND PROBATION
1/24/2018 1010 SPARKS, SHAUN LAMONT B M 39 19.2-306|[F] REVOCATION OF SUSPENDED SENTENCE AND PROBATION
1/24/2018 1015 SAVAGE, MICHAEL B M 61 18.2-95 GRAND LARCENY 2017015091
1/24/2018 1247 WATSON, EDDIE MORRIS JR B M 51 18.2-248|[F] MANUF, SALE, POSSESSION CONTROLLED SUBSTANCE
1/24/2018 1359 COX, MICHELLE CLEO W F 49 18.2-250|[F] POSSESSION OF CONTROLLED SUBSTANCES 2017015784
1/24/2018 1609 ANDERSON, STEPHANIE MONEE B F 31 18.2-456 CONTEMPT OF COURT
1/24/2018 1633 QUESENBERRY, ELIZABETH ANN W F 31 18.2-57|[M] ASSAULT & BATTERY 2018000782
1/24/2018 1633 QUESENBERRY, ELIZABETH ANN W F 31 18.2-96|[M] PETIT LARCENY 2018000782
1/24/2018 1710 SIMON, WAYNE ALLEN II W M 24 18.2-57.2|[M] ASSAULT & BATTERY - FAMILY MEMBER 2018000812
1/24/2018 2144 WHITE, TAJAHA RYQUAL B F 19 18.2-95 GRAND LARCENY 2018000928
1/24/2018 1:25:00 PM 1325 JACKSON, LISA MICHELLE B F 55 18.2-456 CONTEMPT OF COURT
1/25/2018 0038 GREEN, CLIFTON SPENCER B M 32 18.2-108|[F] RECEIVING STOLEN GOODS 2017012282
1/25/2018 0102 GONZALEZ, JOSE LUIS JR U M 32 18.2-57.2|[M] ASSAULT & BATTERY - FAMILY MEMBER 2018000938
1/25/2018 0442 PARKER, JERMALE ANTIONE B M 33 18.2-57.2|[M] ASSAULT & BATTERY - FAMILY MEMBER 2018000944
1/25/2018 1126 THOMAS, KAILEB DAIQUAN B M 20 18.2-456 CONTEMPT OF COURT 9999249190
1/25/2018 1322 BROWN, DAESHAWN MARQUISE B M 19 19.2-128|[M] FAIL TO APPEAR ON MISDEMEANOR CHARGE
1/25/2018 1440 SMITH, ESSHAWNDA VALVETTA B F 24 19.2-306|[F] REVOCATION OF SUSPENDED SENTENCE AND PROBATION
1/25/2018 1440 SMITH, ESSHAWNDA VALVETTA B F 24 46.2-894 ACCIDENTS - HIT AND RUN RESULTING IN INJURY AND/OR DEATH [FE 2018000955
1/25/2018 1446 LAWTON, AVERY MYRON B M 43 19.2-306|[F] REVOCATION OF SUSPENDED SENTENCE AND PROBATION
1/25/2018 1513 JURCIK, FELICIA S B F 47 18.2-57|[M] ASSAULT & BATTERY 2018000960
1/25/2018 1513 JURCIK, FELICIA S B F 47 19.2-306|[F] REVOCATION OF SUSPENDED SENTENCE AND PROBATION
1/25/2018 1513 JURCIK, FELICIA S B F 47 19.2-306|[F] REVOCATION OF SUSPENDED SENTENCE AND PROBATION
1/25/2018 1538 WALKER, ROMIHA B F 54 18.2-456 CONTEMPT OF COURT
1/25/2018 1554 WHITEHEAD, ORLANDO DONTE B M 38 24-253 ALCOHOL - OPEN CONTAINER OF AN ALCOHOLIC BEVERAGE IN ANY PUB 2018000968
1/25/2018 1555 WILLIAMS, KEVIN VON W M 44 4.1-305 UNLAWFUL PURCHASE OR POSSESS ALCOHOLIC BEVERAGE 2018000964
1/25/2018 1730 RAMSEY, JONTA SHON GERMAINE B M 23 18.2-456 CONTEMPT OF COURT
1/25/2018 2245 SCOTT, QUANESHA SHATORIA B F 32 24-258 PUBLIC DRUNKENNESS
1/25/2018 11:13:00 AM 1113 FRIEDMAN, MATTHEW REUBEN W M 44 4-31 DOG AT LARGE
1/26/2018 0059 ORAVETS, SABRINA JOY W F 33 19.2-128|[M] FAIL TO APPEAR ON MISDEMEANOR CHARGE
1/26/2018 0448 CONERY, LOGAN RAYE W F 20 18.2-266 DRIVING UNDER THE INFLUENCE OF ALCOHOL 2018000987
1/26/2018 0448 CONERY, LOGAN RAYE W F 20 4.1-305 UNLAWFUL PURCHASE OR POSSESS ALCOHOLIC BEVERAGE 2018000987
1/26/2018 0448 CONERY, LOGAN RAYE W F 20 46.2-896 HIT & RUN - UNATTENDED VEH 2018000987
1/26/2018 0900 PERRINE, AUSTIN TAYLOR W M 26 16.1-278.16 FAIL TO COMPLY WITH SUPPORT OBLIGATIONS
1/26/2018 1010 MONK, TERENCE LAMAR B M 23 16.1-278.16 FAIL TO COMPLY WITH SUPPORT OBLIGATIONS
1/26/2018 1309 HILL, JAMES VERNON B M 49 18.2-456 CONTEMPT OF COURT
1/26/2018 1309 HILL, JAMES VERNON B M 49 16.1-279.1 PROTECTIVE ORDER IN CASES OF FAMILY ABUS
1/26/2018 1450 SULLIVAN, STEFANIE LOUISE W F 32 18.2-111|[F] EMBEZZLEMENT >=$200 2017016644
1/26/2018 1515 WRIGHT, DEREK ANTHONY B M 40 18.2-456 CONTEMPT OF COURT
1/26/2018 1650 JOYNER, MARCUS MACPHERON JR B M 69 19.2-306|[F] REVOCATION OF SUSPENDED SENTENCE AND PROBATION
1/26/2018 1735 WHITTLE, KRISTINA WANJIKU B F 22 18.2-456 CONTEMPT OF COURT
1/26/2018 1735 WHITTLE, KRISTINA WANJIKU B F 22 18.2-456 CONTEMPT OF COURT
1/26/2018 1840 GRIFFIN, SHAWN WILLIAM B M 18 18.2-53.1 USE OR DISPLAY FIREARM IN COMMISSION OF 2017014695
1/26/2018 1847 NEWSOME, DWAYNE ERIC B M 59 19.2-306|[F] REVOCATION OF SUSPENDED SENTENCE AND PROBATION
1/26/2018 1847 NEWSOME, DWAYNE ERIC B M 59 19.2-306|[F] REVOCATION OF SUSPENDED SENTENCE AND PROBATION
1/26/2018 1855 SHERROD, BILAL SHAHEED B M 36 18.2-51.2 AGGRAVATED MALICIOUS WOUNDING
1/26/2018 1912 RAYNOR, GILBERT RYAN W M 26 19.2-306|[M] REVOCATION OF SUSPENDED SENTENCE AND PROBATION
1/26/2018 1912 RAYNOR, GILBERT RYAN W M 26 19.2-306|[F] REVOCATION OF SUSPENDED SENTENCE AND PROBATION
1/26/2018 1912 RAYNOR, GILBERT RYAN W M 26 19.2-306|[F] REVOCATION OF SUSPENDED SENTENCE AND PROBATION
1/26/2018 1912 RAYNOR, GILBERT RYAN W M 26 19.2-306|[F] REVOCATION OF SUSPENDED SENTENCE AND PROBATION
1/26/2018 1912 RAYNOR, GILBERT RYAN W M 26 19.2-306|[F] REVOCATION OF SUSPENDED SENTENCE AND PROBATION
1/26/2018 1912 RAYNOR, GILBERT RYAN W M 26 19.2-306|[F] REVOCATION OF SUSPENDED SENTENCE AND PROBATION
1/26/2018 1912 RAYNOR, GILBERT RYAN W M 26 19.2-306|[F] REVOCATION OF SUSPENDED SENTENCE AND PROBATION
1/26/2018 1912 RAYNOR, GILBERT RYAN W M 26 19.2-306|[F] REVOCATION OF SUSPENDED SENTENCE AND PROBATION
1/26/2018 1912 RAYNOR, GILBERT RYAN W M 26 19.2-306|[F] REVOCATION OF SUSPENDED SENTENCE AND PROBATION
1/26/2018 1912 RAYNOR, GILBERT RYAN W M 26 19.2-306|[F] REVOCATION OF SUSPENDED SENTENCE AND PROBATION
1/26/2018 1930 FIELDS, MARCUS DEAN B M 46 19.2-306|[F] REVOCATION OF SUSPENDED SENTENCE AND PROBATION
1/26/2018 1934 LITTLE, DEVIN ROMON B M 40 18.2-104 LARCENY OR THEFT (3RD OR SUBSQ OFFENSE) 2017012892
1/26/2018 2033 MOORE, ERICKA SHANTEL B F 28 18.2-57|[F] ASSAULT & BATTERY 2016015342
1/26/2018 2100 WILLIAMS, TIJWAN MAURICE B M 39 18.2-456 CONTEMPT OF COURT 9999248928
1/26/2018 2330 HARRELL, CHARLES EDWARD B M 37 18.2-57.2|[M] ASSAULT & BATTERY - FAMILY MEMBER 2017016317
1/26/2018 2330 HARRELL, CHARLES EDWARD B M 37 18.2-250|[F] POSSESSION OF CONTROLLED SUBSTANCES 2018001021
1/26/2018 2330 HARRELL, CHARLES EDWARD B M 37 18.2-250.1 POSSESSION OF MARIJUANA 2018001021
1/26/2018 10:12:00 AM 2212 REID, TABARI HASHEEM KEONTAE B M 23 18.2-456 CONTEMPT OF COURT 9999248921
1/26/2018 10:28:00 AM 1028 DYAMOND, ALICIEA B F 24 18.2-456 CONTEMPT OF COURT
1/26/2018 11:58:00 AM 1158 ROBERTSON, MARQUIS SUAVE B M 24 18.2-456 CONTEMPT OF COURT
1/26/2018 3:29:00 PM 1529 RIDDICK, JAMEL DARNELL B M 22 18.2-386.2 UNLAWFUL DISSEMINATION OF IMAGE
1/27/2018 0246 FAULKS, RONNIE STEVENS B M 62 18.2-266|[M] DRIVING UNDER THE INFLUENCE OF ALCOHOL 2018001026
1/27/2018 1236 WATKINS, JAMEL RAAQUON B M 26 18.2-57.2|[M] ASSAULT & BATTERY - FAMILY MEMBER 2018001033
1/27/2018 1236 WATKINS, JAMEL RAAQUON B M 26 18.2-460[M] OBSTRUCT/RESIST 2018001033
1/27/2018 1402 MILES, CRYSTAL MARIE B F 31 18.2-456 CONTEMPT OF COURT
1/27/2018 2215 JONES, ANTWAN MARQUIS B M 19 18.2-388 PUBLIC SWEARING OR INTOXICATION 2018001058
1/27/2018 2253 DONNELL, LENNY B M 22 19.2-306|[F] REVOCATION OF SUSPENDED SENTENCE AND PROBATION 9999249038
1/27/2018 2256 GREEN, TREVIN JAMAR B M 35 24-258 PUBLIC DRUNKENNESS 2018001055
1/27/2018 2327 DAVIS, CYNTHIA YVETTE B F 57 18.2-57.2|[M] ASSAULT & BATTERY - FAMILY MEMBER 2018001060
1/27/2018 2359 RIDDICK, BRIAN DONTRAY B M 27 24-258 PUBLIC DRUNKENNESS 2018001061
1/27/2018 12:26:00 AM 0001 SMITH, MARSHAL LEE B M 46 18.2-57|[M] ASSAULT & BATTERY 2013012681
1/27/2018 1:55:00 AM 0155 JENNINGS, RASHAUNDA TANESHA B F 30 19.2-306|[F] REVOCATION OF SUSPENDED SENTENCE AND PROBATION
1/27/2018 9:23:00 PM 2123 HAWKINS, DAVID MATTHEW B M 38 18.2-456 CONTEMPT OF COURT 9999248997
1/28/2018 0109 ROSS, QUENTIN DEVON B M 30 18.2-456 CONTEMPT OF COURT 9999248929
1/28/2018 0124 RIDDICK, LASHONDA ASHLEY B F 27 18.2-415 DISORDERLY CONDUCT 2018001064
1/28/2018 0124 RIDDICK, LASHONDA ASHLEY B F 27 18.2-460[M] OBSTRUCT/RESIST 2018001064
1/28/2018 0124 RIDDICK, LASHONDA ASHLEY B F 27 18.2-479.1 FLEEING FROM LAW ENFORCEMENT OFFICER 2018001064
1/28/2018 0124 RIDDICK, LASHONDA ASHLEY B F 27 24-258 PUBLIC DRUNKENNESS 2018001064
1/28/2018 0124 RIDDICK, LASHONDA ASHLEY B F 27 24-253 ALCOHOL - OPEN CONTAINER OF AN ALCOHOLIC BEVERAGE IN ANY PUB 2018001064
1/28/2018 0124 RIDDICK, LASHONDA ASHLEY B F 27 4.1-305 UNLAWFUL PURCHASE OR POSSESS ALCOHOLIC BEVERAGE 2018001064
1/28/2018 0410 BINGHAM, JEFFREY MYERS W M 36 18.2-266|[M] DRIVING UNDER THE INFLUENCE OF ALCOHOL 2018001068
1/28/2018 0410 BINGHAM, JEFFREY MYERS W M 36 46.2-825 FAIL TO YIELD - LEFT TURN TRAFFIC TO YIELD RIGHT OF WAY 2018001068
1/28/2018 1138 ARD, KENNETH ROOSEVELT B M 52 18.2-456 CONTEMPT OF COURT
1/28/2018 1138 ARD, KENNETH ROOSEVELT B M 52 18.2-456 CONTEMPT OF COURT
1/28/2018 1138 ARD, KENNETH ROOSEVELT B M 52 18.2-456 CONTEMPT OF COURT
1/28/2018 1622 WHITFIELD, AMONI MICHELLE B F 20 18.2-415 DISORDERLY CONDUCT 2018001078
1/28/2018 1622 WHITFIELD, AMONI MICHELLE B F 20 18.2-460[M] OBSTRUCT/RESIST 2018001078
1/28/2018 1958 COKER, JAMES AARON W M 37 18.2-456 CONTEMPT OF COURT
1/28/2018 2117 POINTER, MARVIN DANTE B M 38 18.2-51.2 AGGRAVATED MALICIOUS WOUNDING 2018001081
1/28/2018 2117 POINTER, MARVIN DANTE B M 38 18.2-53.1 USE OR DISPLAY FIREARM IN COMMISSION OF FELONY 2018001081
1/28/2018 2117 POINTER, MARVIN DANTE B M 38 18.2-282|[M] BRANDISHING FIREARM 2018001081
1/28/2018 2117 POINTER, MARVIN DANTE B M 38 18.2-282|[M] BRANDISHING FIREARM 2018001081
1/28/2018 2117 POINTER, MARVIN DANTE B M 38 18.2-282|[M] BRANDISHING FIREARM 2018001081
1/28/2018 2142 MOORE, SHAUN ANTONIO B M 42 18.2-456 CONTEMPT OF COURT
1/29/2018 1032 WEISS, JODI LYNN W F 40 18.2-104 LARCENY OR THEFT (3RD OR SUBSQ OFFENSE) 2018000497
1/29/2018 1032 WEISS, JODI LYNN W F 40 18.2-170 FORGING COIN AND BANK NOTES 2018000497
1/29/2018 1032 WEISS, JODI LYNN W F 40 18.2-170 FORGING COIN AND BANK NOTES 2018000497
1/29/2018 1032 WEISS, JODI LYNN W F 40 18.2-170 FORGING COIN AND BANK NOTES 2018000497
1/29/2018 1032 WEISS, JODI LYNN W F 40 18.2-170 FORGING COIN AND BANK NOTES 2018000497
1/29/2018 1032 WEISS, JODI LYNN W F 40 18.2-170 FORGING COIN AND BANK NOTES 2018000497
1/29/2018 1032 WEISS, JODI LYNN W F 40 18.2-170 FORGING COIN AND BANK NOTES 2018000497
1/29/2018 1032 WEISS, JODI LYNN W F 40 18.2-170 FORGING COIN AND BANK NOTES 2018000497
1/29/2018 1032 WEISS, JODI LYNN W F 40 18.2-170 FORGING COIN AND BANK NOTES 2018000497
1/29/2018 1032 WEISS, JODI LYNN W F 40 18.2-102|[F] UNAUTHORIZED USE OF VEHICLE, BOAT OR ANIMAL 2018000497
1/29/2018 1112 MITCHELL, DIAMOND NESHELLE B F 21 18.2-456 CONTEMPT OF COURT
1/29/2018 1200 HILL, SHYKEYLA MIQUEEN B F 22 18.2-57|[M] ASSAULT & BATTERY
1/29/2018 1214 HALL, DEREK JAMAL B M 23 18.2-371 CONTRIBUTING TO THE DELINQUENCY OF A MINOR
1/29/2018 1214 HALL, DEREK JAMAL B M 23 24-247 FALSE INFORMATION TO POLICE
1/29/2018 1229 PRIVOTT, ANTHONY SPENCER W M 41 18.2-456 CONTEMPT OF COURT
1/29/2018 1235 WALKER, THOMAS EDWARD JR W M 64 18.2-57|[M] ASSAULT & BATTERY
1/29/2018 1238 PRIVOTT, ANTHONY SPENCER W M 41 18.2-103|[F] CONCEALMENT, PRICE ALTER MERCHANDISE >=$200 2017010771
1/29/2018 1253 WILKINSON, CHRISTOPHER BRETT W M 39 18.2-91|[F] BREAKING & ENTER W/INT TO COMMIT FELONY 2018000010
1/29/2018 1253 WILKINSON, CHRISTOPHER BRETT W M 39 18.2-57.2|[M] ASSAULT & BATTERY - FAMILY MEMBER 2018000010
1/29/2018 1329 CLARK, KERMIT CORNELIOUS B M 46 18.2-456 CONTEMPT OF COURT
1/29/2018 1345 LESTER, AARON MONTRE B M 21 18.2-456 CONTEMPT OF COURT
1/29/2018 1455 TRAINHAN, JESSICA NICOLE W F 26 18.2-456 CONTEMPT OF COURT
1/29/2018 1516 SMITH, ANTHONY LEE W M 35 18.2-371 CONTRIBUTING TO THE DELINQUENCY OF A MINOR
1/29/2018 1516 SMITH, ANTHONY LEE W M 35 18.2-57|[M] ASSAULT & BATTERY
1/29/2018 1646 BENNETT, PHILLIP GUNTER B M 64 24-258 PUBLIC DRUNKENNESS 2018001112
1/29/2018 1847 HOLMES, CHELSEA JOANN W F 27 18.2-57|[M] ASSAULT & BATTERY
1/29/2018 1903 JEAN, REBECCA YVONNE W F 53 24-258 PUBLIC DRUNKENNESS 2018001117
1/29/2018 2008 HARRIS, KEITH B M 51 18.2-119 TRESPASSING
1/29/2018 2008 HARRIS, KEITH B M 51 18.2-60.3|[M] STALKING
1/29/2018 2045 WHITE, DARLENE LAVOY B F 28 18.2-456 CONTEMPT OF COURT
1/29/2018 2138 DEVERS, DAVID KEITH JR W M 53 24-258 PUBLIC DRUNKENNESS
1/29/2018 2256 FISHER, MATTHEW KYLE W M 34 19.2-306|[M] REVOCATION OF SUSPENDED SENTENCE AND PROBATION
1/29/2018 7:39:00 AM 0739 CARR, MARKEECIA L B F 23 18.2-137|[M] DESTRUCTION OF PROPERTY, GENERAL 2018000862
1/29/2018 4:45:00 PM 1645 BOARDWINE, EVERETT W M 57 18.2-456 CONTEMPT OF COURT
1/30/2018 0050 MASSENBURG, TRAVON MARQUIS B M 32 16.1-292 VIOLATION OF COURT ORDER
1/30/2018 0248 WHITEHEAD, CHARLES LEE JR B M 37 18.2-266 DRIVING UNDER THE INFLUENCE OF ALCOHOL
1/30/2018 0248 WHITEHEAD, CHARLES LEE JR B M 37 46.2-301 DRIVING W/SUSPENDED OR REVOKED LICENSE
1/30/2018 0248 WHITEHEAD, CHARLES LEE JR B M 37 46.2-825 FAIL TO YIELD - LEFT TURN TRAFFIC TO YIELD RIGHT OF WAY
1/30/2018 0315 WILLIAMS, SHANNON LATEEF B F 32 24-258 PUBLIC DRUNKENNESS 2018001136
1/30/2018 0315 WILLIAMS, SHANNON LATEEF B F 32 24-206 URINATE OR DEFECATE IN PUBLIC [CLASS 4 MISD] 2018001136
1/30/2018 0938 HARRELL, CHARLES EDWARD B M 37 PB-15 PAROLE BOARD WARRANT - PB15
1/30/2018 0948 WALSH, CHRISTOPHER MASON W M 42 18.2-456 CONTEMPT OF COURT
1/30/2018 0948 WALSH, CHRISTOPHER MASON W M 42 18.2-456 CONTEMPT OF COURT
1/30/2018 1017 BROWN, HALIE NICOLE W F 23 19.2-306|[F] REVOCATION OF SUSPENDED SENTENCE AND PROBATION
1/30/2018 1017 BROWN, HALIE NICOLE W F 23 19.2-306|[F] REVOCATION OF SUSPENDED SENTENCE AND PROBATION
1/30/2018 1017 BROWN, HALIE NICOLE W F 23 19.2-306|[F] REVOCATION OF SUSPENDED SENTENCE AND PROBATION
1/30/2018 1040 WARREN, KALIE ALEXIS MORGAN W F 24 16.1-253.2[M] PROTECTIVE ORDER: VIOLATION
1/30/2018 1040 WARREN, KALIE ALEXIS MORGAN W F 24 19.2-152.10 PROTECTIVE ORDER
1/30/2018 1040 WARREN, KALIE ALEXIS MORGAN W F 24 18.2-456 CONTEMPT OF COURT
1/30/2018 1040 WARREN, KALIE ALEXIS MORGAN W F 24 18.2-119 TRESPASSING
1/30/2018 1040 WARREN, KALIE ALEXIS MORGAN W F 24 18.2-456 CONTEMPT OF COURT
1/30/2018 1118 CARR, STEVEN RANDOLPH W M 58 18.2-95 GRAND LARCENY 2017017015
1/30/2018 1143 MORRIS, GEORGE ALTON W M 33 19.2-306|[F] REVOCATION OF SUSPENDED SENTENCE AND PROBATION 9999249040
1/30/2018 1143 MORRIS, GEORGE ALTON W M 33 19.2-306|[F] REVOCATION OF SUSPENDED SENTENCE AND PROBATION 9999249040
1/30/2018 1243 BROWN, GUSTAVIA SHENEE B F 26 18.2-91|[F] BREAKING & ENTER W/INT TO COMMIT FELONY 2018001015
1/30/2018 1243 BROWN, GUSTAVIA SHENEE B F 26 18.2-57|[M] ASSAULT & BATTERY 2018001015
1/30/2018 1335 JEAN, REBECCA YVONNE W F 53 18.2-119 TRESPASSING 2018001148
1/30/2018 1335 JEAN, REBECCA YVONNE W F 53 24-258 PUBLIC DRUNKENNESS
1/30/2018 1335 JEAN, REBECCA YVONNE W F 53 24-253 ALCOHOL - OPEN CONTAINER OF AN ALCOHOLIC BEVERAGE IN ANY PUB
1/30/2018 1446 KACMAR, CHRISTOPHER W M 55 19.2-99|[F] FUGITIVE FROM JUSTICE
1/30/2018 1635 BURCH, TYLER KIP B M 20 19.2-99|[F] FUGITIVE FROM JUSTICE
1/30/2018 1810 GARDNER, RAYMOND MONTA B M 36 18.2-57.2|[M] ASSAULT & BATTERY - FAMILY MEMBER 2018000939
1/30/2018 1836 MOORE, DEVONTE LOQUINTON B M 26 18.2-456 CONTEMPT OF COURT
1/30/2018 2035 WILLIAMS, FELICIA RENEE B F 50 18.2-456 CONTEMPT OF COURT
1/30/2018 2125 PORTER, DRESEAN LAMARTA B M 27 18.2-456 CONTEMPT OF COURT
1/30/2018 2317 JOHNSON, JAMES EDWARD III B M 56 18.2-266 DRIVING UNDER THE INFLUENCE OF ALCOHOL
1/30/2018 2317 JOHNSON, JAMES EDWARD III B M 56 46.2-613 VEHICLE REGISTRATION VIOLATIONS
1/30/2018 2317 JOHNSON, JAMES EDWARD III B M 56 46.2-301 DRIVING W/SUSPENDED OR REVOKED LICENSE
1/31/2018 0200 ROY, PHILLIP PAUL II W M 35 PB-15 PAROLE BOARD WARRANT - PB15 9999248927
1/31/2018 1109 MYRICK, HAMISI O`KOYE JR B M 22 46.2-301 DRIVING W/SUSPENDED OR REVOKED LICENSE
1/31/2018 1202 ARMSTRONG, NICHOLAS SCOTECE W M 31 19.2-152.10 PROTECTIVE ORDER
1/31/2018 1202 ARMSTRONG, NICHOLAS SCOTECE W M 31 18.2-456 CONTEMPT OF COURT
1/31/2018 1400 WHITEHURST, JAMES CLARKE III B M 26 18.2-96|[M] PETIT LARCENY 2017002884
1/31/2018 1400 WHITEHURST, JAMES CLARKE III B M 26 19.2-152.4:1[F] REVOCATION OF PRETRIAL RELEASE
1/31/2018 1400 WHITEHURST, JAMES CLARKE III B M 26 19.2-152.4:1[F] REVOCATION OF PRETRIAL RELEASE
1/31/2018 1400 WHITEHURST, JAMES CLARKE III B M 26 19.2-152.4:1[F] REVOCATION OF PRETRIAL RELEASE
1/31/2018 1410 BUDA, BRENT ALEXANDER W M 33 18.2-456 CONTEMPT OF COURT 9999249039
1/31/2018 1616 PITTMAN, TRAVIS SHANE W M 28 19.2-128|[F] FAIL TO APPEAR ON FELONY CHARGE
1/31/2018 1616 PITTMAN, TRAVIS SHANE W M 28 18.2-250|[F] POSSESSION OF CONTROLLED SUBSTANCES 2018001187
1/31/2018 1616 PITTMAN, TRAVIS SHANE W M 28 54.1-3466 POSSESS, DISTRIBUTE CONTROLLED PARAPHERNALIA 2018001187
1/31/2018 1651 COBB, JAYLA BRENDA LEE B F 18 18.2-456 CONTEMPT OF COURT
1/31/2018 1920 BLANKENSHIP, DATERRION MARQUA B M 23 18.2-456 CONTEMPT OF COURT
1/31/2018 1920 BLANKENSHIP, DATERRION MARQUA B M 23 18.2-308.2 POSSESS, TRANSPORT FIREARMS BY CONVICTED FELONS 2018001053
1/31/2018 1920 BLANKENSHIP, DATERRION MARQUA B M 23 18.2-53.1 USE OR DISPLAY FIREARM IN COMMISSION OF FELONY 2018001053
1/31/2018 1920 BLANKENSHIP, DATERRION MARQUA B M 23 18.2-137|[F] DESTRUCTION OF PROPERTY GENERAL -VALUE >=$1000 2018001053
1/31/2018 1920 BLANKENSHIP, DATERRION MARQUA B M 23 18.2-26 ATTEMPT TO COMMIT NONCAPITAL OFFENSE 2018001053
1/31/2018 1920 BLANKENSHIP, DATERRION MARQUA B M 23 18.2-26 ATTEMPT TO COMMIT NONCAPITAL OFFENSE 2018001053
1/31/2018 1920 BLANKENSHIP, DATERRION MARQUA B M 23 18.2-26 ATTEMPT TO COMMIT NONCAPITAL OFFENSE 2018001053
1/31/2018 1920 BLANKENSHIP, DATERRION MARQUA B M 23 18.2-280|[M] DISCHARGE FIREARM IN PUBLIC PLACE 2018001053
1/31/2018 1920 BLANKENSHIP, DATERRION MARQUA B M 23 18.2-137|[M] DESTRUCTION OF PROPERTY, GENERAL 2018001053
1/31/2018 2109 NEATHERY, TOMMY LEE W M 43 19.2-306|[F] REVOCATION OF SUSPENDED SENTENCE AND PROBATION
1/31/2018 8:10:00 AM 0810 RALPH, ANTONIO CORDERO SR B M 29 18.2-250|[F] POSSESSION OF CONTROLLED SUBSTANCES 2017007571
1/31/2018 8:10:00 AM 0810 RALPH, ANTONIO CORDERO SR B M 29 18.2-250|[F] POSSESSION OF CONTROLLED SUBSTANCES 2017007571
2/1/2018 0049 RIDDICK, BRIAN DONTRAY B M 27 24-258 PUBLIC DRUNKENNESS 2018001211
2/1/2018 0107 JORDAN, WAYNE DEMUS B M 40 18.2-456 CONTEMPT OF COURT 9999249036
2/1/2018 0212 BRITTLE, ISAIAH JR B M 50 18.2-456 CONTEMPT OF COURT
2/1/2018 0212 BRITTLE, ISAIAH JR B M 50 18.2-250|[F] POSSESSION OF CONTROLLED SUBSTANCES 2018001209
2/1/2018 0212 BRITTLE, ISAIAH JR B M 50 19.2-82.1 FALSE IDENTIFY SELF TO LAW ENFORCEMENT 2018001209
2/1/2018 0212 BRITTLE, ISAIAH JR B M 50 18.2-119 TRESPASSING
2/1/2018 0306 SAWYER, JOHNNIE RAY JR W M 41 18.2-456 CONTEMPT OF COURT
2/1/2018 0425 WOMACK, RICHARD CURTIS JR B M 27 18.2-96|[M] PETIT LARCENY 2017015281
2/1/2018 0425 WOMACK, RICHARD CURTIS JR B M 27 18.2-96|[M] PETIT LARCENY
2/1/2018 0930 MCGOWAN, SCOTT MITCHELL W M 39 18.2-456 CONTEMPT OF COURT
2/1/2018 1147 HOBSON, JAMES MICHAEL JR B M 35 18.2-456 CONTEMPT OF COURT
2/1/2018 1200 SPARRER, GREGORY KEITH W M 52 18.2-186.3|[M] IDENTITY FRAUD 2018001230
2/1/2018 1200 SPARRER, GREGORY KEITH W M 52 18.2-178|[M] OBTAINING MONEY BY FALSE PRETENSES 2018001230
2/1/2018 1200 SPARRER, GREGORY KEITH W M 52 18.2-178|[M] OBTAINING MONEY BY FALSE PRETENSES 2018001230
2/1/2018 1200 SPARRER, GREGORY KEITH W M 52 18.2-192 CREDIT CARD THEFT 2018001230
2/1/2018 1200 SPARRER, GREGORY KEITH W M 52 18.2-172 FORGING, UTTERING 2018001230
2/1/2018 1200 SPARRER, GREGORY KEITH W M 52 18.2-172 FORGING, UTTERING 2018001230
2/1/2018 1200 SPARRER, GREGORY KEITH W M 52 18.2-186.3|[M] IDENTITY FRAUD 2018001230
2/1/2018 1226 BATTLE, ELVIN THOMAS B M 54 18.2-456 CONTEMPT OF COURT
2/1/2018 1325 TUCKER, JOSEPH DEAQUAN B M 28 18.2-456 CONTEMPT OF COURT
2/1/2018 1325 TUCKER, JOSEPH DEAQUAN B M 28 18.2-456 CONTEMPT OF COURT
2/1/2018 1330 MIFFLETON, CAMERON LAYNE W M 34 18.2-137|[M] DESTRUCTION OF PROPERTY, GENERAL
2/1/2018 1330 MIFFLETON, CAMERON LAYNE W M 34 18.2-456 CONTEMPT OF COURT
2/1/2018 1503 TAYLOR, JAMALL ANDRE B M 36 19.2-128|[F] FAIL TO APPEAR ON FELONY CHARGE
2/1/2018 1511 SIMPSON, KENNETH RAY JR W M 37 18.2-192 CREDIT CARD THEFT 2018001230
2/1/2018 1511 SIMPSON, KENNETH RAY JR W M 37 18.2-172 FORGING, UTTERING 2018001230
2/1/2018 1511 SIMPSON, KENNETH RAY JR W M 37 18.2-186.3 IDENTITY THEFT: USE TO AVOID ARREST 2018001230
2/1/2018 1511 SIMPSON, KENNETH RAY JR W M 37 18.2-178|[M] OBTAINING MONEY BY FALSE PRETENSES 2018001230
2/1/2018 1530 DOBBINS, ELIJAH JAQUAN B M 24 18.2-58 ROBBERY 2016004462
2/1/2018 1530 DOBBINS, ELIJAH JAQUAN B M 24 18.2-47 ABDUCTION & KIDNAPPING 2016004462
2/1/2018 1530 DOBBINS, ELIJAH JAQUAN B M 24 18.2-53.1 USE OR DISPLAY FIREARM IN COMMISSION OF FELONY 2016004462
2/1/2018 1530 DOBBINS, ELIJAH JAQUAN B M 24 18.2-53.1 USE OR DISPLAY FIREARM IN COMMISSION OF FELONY 2016004462
2/1/2018 1530 DOBBINS, ELIJAH JAQUAN B M 24 18.2-279 DISCHARGE FIREARM OR MISSILE IN/AT OCCUPIED BLDG 2016004462
2/1/2018 1622 BOONE, BRYAN MAURICE B M 34 46.2-817|[F] ELUDING POLICE - ENDANGER PERSONS OR POLICE CAR 2018001206
2/1/2018 1622 BOONE, BRYAN MAURICE B M 34 46.2-894 ACCIDENTS - HIT AND RUN RESULTING IN INJURY AND/OR DEATH [FE 2018001206
2/1/2018 1622 BOONE, BRYAN MAURICE B M 34 46.2-301 DRIVING W/SUSPENDED OR REVOKED LICENSE 2018001206
2/1/2018 1622 BOONE, BRYAN MAURICE B M 34 18.2-460[M] OBSTRUCT/RESIST 2018001206
2/1/2018 1622 BOONE, BRYAN MAURICE B M 34 18.2-250|[F] POSSESSION OF CONTROLLED SUBSTANCES 2018001238
2/1/2018 1622 BOONE, BRYAN MAURICE B M 34 18.2-371.1 ABUSE AND NEGLECT OF CHILDREN 2018001206
2/1/2018 1854 HARRIS, MISTY DAWN W F 44 18.2-57.2|[M] ASSAULT & BATTERY - FAMILY MEMBER 2018001251
2/1/2018 1900 PERRY, RODTRELL DE`ONTE B M 25 18.2-26 ATTEMPT TO COMMIT NONCAPITAL OFFENSE 2018001053
2/1/2018 1900 PERRY, RODTRELL DE`ONTE B M 25 18.2-26 ATTEMPT TO COMMIT NONCAPITAL OFFENSE 2018001053
2/1/2018 1900 PERRY, RODTRELL DE`ONTE B M 25 18.2-26 ATTEMPT TO COMMIT NONCAPITAL OFFENSE 2018001053
2/1/2018 1900 PERRY, RODTRELL DE`ONTE B M 25 18.2-308.2 POSSESS, TRANSPORT FIREARMS BY CONVICTED FELONS 2018001053
2/1/2018 1900 PERRY, RODTRELL DE`ONTE B M 25 18.2-53.1 USE OR DISPLAY FIREARM IN COMMISSION OF FELONY 2018001053
2/1/2018 1900 PERRY, RODTRELL DE`ONTE B M 25 18.2-137|[F] DESTRUCTION OF PROPERTY GENERAL -VALUE >=$1000 2018001053
2/1/2018 1900 PERRY, RODTRELL DE`ONTE B M 25 18.2-137|[M] DESTRUCTION OF PROPERTY, GENERAL 2018001053
2/1/2018 1900 PERRY, RODTRELL DE`ONTE B M 25 18.2-280|[M] DISCHARGE FIREARM IN PUBLIC PLACE 2018001053
2/1/2018 12:51:00 PM 1251 JOHNSON, MICHELLE W F 55 18.2-119 TRESPASSING
2/2/2018 0005 GRIFFIN, JEREMY LAVON B M 24 18.2-456 CONTEMPT OF COURT 9999249168
2/2/2018 0426 CUNNEEN, IAN CHRISTOPHER W M 30 18.2-456 CONTEMPT OF COURT
2/2/2018 0507 FREEMAN, CHRIS ANTHONY B M 34 18.2-250|[F] POSSESSION OF CONTROLLED SUBSTANCES 2018001273
2/2/2018 0900 PORTER, DRESEAN LAMARTA B M 27 16.1-278.16 FAIL TO COMPLY WITH SUPPORT OBLIGATIONS 9999249288
2/2/2018 0900 PORTER, DRESEAN LAMARTA B M 27 16.1-278.16 FAIL TO COMPLY WITH SUPPORT OBLIGATIONS 9999249288
2/2/2018 0911 DAVIS, CARA NICOLE W F 23 18.2-57|[M] ASSAULT & BATTERY 2018001114
2/2/2018 0911 DAVIS, CARA NICOLE W F 23 18.2-57|[M] ASSAULT & BATTERY
2/2/2018 0911 SPENCE, MARTINA KEYANA B F 28 18.2-456 CONTEMPT OF COURT
2/2/2018 0930 FERRELL, DANIEL ALLAN W M 27 18.2-95 GRAND LARCENY 2017014189
2/2/2018 0930 FERRELL, DANIEL ALLAN W M 27 18.2-178|[M] OBTAINING MONEY BY FALSE PRETENSES 2017014189
2/2/2018 0930 FERRELL, DANIEL ALLAN W M 27 18.2-178|[M] OBTAINING MONEY BY FALSE PRETENSES 2017014189
2/2/2018 1045 HARRIGAN, KENNETH PATRICK W M 19 18.2-266|[M] DRIVING UNDER THE INFLUENCE OF ALCOHOL 2018001281
2/2/2018 1115 DOWNING, JOSEPH WILLIE B M 37 18.2-456 CONTEMPT OF COURT
2/2/2018 1200 PARKER, MCCOY LEE B M 64 18.2-57.2|[M] ASSAULT & BATTERY - FAMILY MEMBER 2018001289
2/2/2018 1200 HATCH, RAYJON LAMONT SHABAZZ B M 20 18.2-456 CONTEMPT OF COURT
2/2/2018 1257 SMITH, VICKI MICHELLE B F 42 18.2-456 CONTEMPT OF COURT
2/2/2018 1313 ELEY, TRAVIS DARNELL B M 44 18.2-172 FORGING, UTTERING
2/2/2018 1313 ELEY, TRAVIS DARNELL B M 44 18.2-178|[F] OBTAINING MONEY BY FALSE PRETENSES
2/2/2018 1313 ELEY, TRAVIS DARNELL B M 44 18.2-95 GRAND LARCENY
2/2/2018 1820 COPPEDGE, ANTHONY JEROME B M 46 18.2-456 CONTEMPT OF COURT 9999248971
2/2/2018 2030 WRIGHT, DONTAE DAVON B M 30 18.2-250|[F] POSSESSION OF CONTROLLED SUBSTANCES 2048001309
2/2/2018 2030 WRIGHT, DONTAE DAVON B M 30 18.2-57.2|[M] ASSAULT & BATTERY - FAMILY MEMBER 2018001309
2/2/2018 2130 BOONE, BRYAN MAURICE B M 34 18.2-108|[F] RECEIVING STOLEN GOODS 2018001206
2/3/2018 0623 TURNER, TIMOTHY EUGENE B M 42 18.2-456 CONTEMPT OF COURT
2/3/2018 0623 TURNER, TIMOTHY EUGENE B M 42 18.2-119 TRESPASSING
2/3/2018 0623 TURNER, TIMOTHY EUGENE B M 42 18.2-415 DISORDERLY CONDUCT
2/3/2018 0644 WHITEHURST, MAISHA NICOLE B F 29 18.2-266 DRIVING UNDER THE INFLUENCE OF ALCOHOL
2/3/2018 0644 WHITEHURST, MAISHA NICOLE B F 29 46.2-301 DRIVING W/SUSPENDED OR REVOKED LICENSE
2/3/2018 0644 WHITEHURST, MAISHA NICOLE B F 29 18.2-268.3 REFUSE BLOOD/BREATH TEST
2/3/2018 0943 GATLING, ARMAD JAMALL B M 22 18.2-57.2|[M] ASSAULT & BATTERY - FAMILY MEMBER 2017015216
2/3/2018 1300 HILL, HOSEA DONTRELL CHRISR B M 36 18.2-57.2|[M] ASSAULT & BATTERY - FAMILY MEMBER 2018001333
2/3/2018 1432 JOHNSON, CHRISTOPHER MICHAEL B M 23 18.2-58 ROBBERY 2017013515
2/3/2018 1432 JOHNSON, CHRISTOPHER MICHAEL B M 23 18.2-53.1 USE OR DISPLAY FIREARM IN COMMISSION OF FELONY 2017013515
2/3/2018 1432 JOHNSON, CHRISTOPHER MICHAEL B M 23 18.2-422 WEARING MASK IN PUBLIC PLACE 2017013515
2/3/2018 1633 ROUNTREE, JAQUAN MADRICE B M 24 18.2-57.2|[M] ASSAULT & BATTERY - FAMILY MEMBER 2018001336
2/3/2018 1640 MARKS, ELIJAH EUGENE B M 18 18.2-91|[F] BREAKING & ENTER W/INT TO COMMIT FELONY 2018001202
2/3/2018 1640 MARKS, ELIJAH EUGENE B M 18 18.2-95 GRAND LARCENY 2018001202
2/3/2018 1804 NESBITT, EUGENE JR B M 60 46.2-301 DRIVING W/SUSPENDED OR REVOKED LICENSE 2017017389
2/3/2018 1857 BAYLOR, AARON ALAN SR B M 48 18.2-308.4 POSSESS FIREARM WHILE IN POSSESSION OF D 2017014725
2/3/2018 2244 MELTON, SHON ERRICO B M 28 18.2-456 CONTEMPT OF COURT
2/3/2018 2244 MELTON, SHON ERRICO B M 28 16.1-278.16 FAIL TO COMPLY WITH SUPPORT OBLIGATIONS
2/3/2018 2300 BRANCH, DAVID B M 36 18.2-57.2|[M] ASSAULT & BATTERY - FAMILY MEMBER 2018001295
2/3/2018 2300 BRANCH, DAVID B M 36 18.2-57.2|[M] ASSAULT & BATTERY - FAMILY MEMBER 2018001295
2/3/2018 11:38:00 PM 2338 MARTIN, TAPORSIA VONYAE ARIEL B F 19 18.2-57|[M] ASSAULT & BATTERY
2/4/2018 0029 CUFFEE, WILLIE SHAUNTE B M 36 18.2-57.2|[M] ASSAULT & BATTERY - FAMILY MEMBER 2018001349
2/4/2018 0250 MALAWI, AMOURI ADONIS B M 28 18.2-57|[M] ASSAULT & BATTERY 2018001350
2/4/2018 0250 MALAWI, AMOURI ADONIS B M 28 18.2-57|[M] ASSAULT & BATTERY
2/4/2018 0710 HENDERSON, RASHIQUE CAMILLIE B M 35 18.2-57.2|[M] ASSAULT & BATTERY - FAMILY MEMBER 2016010887
2/4/2018 0710 HENDERSON, RASHIQUE CAMILLIE B M 35 18.2-456 CONTEMPT OF COURT
2/4/2018 0710 HENDERSON, RASHIQUE CAMILLIE B M 35 18.2-250|[F] POSSESSION OF CONTROLLED SUBSTANCES 2018001357
2/4/2018 0710 HENDERSON, RASHIQUE CAMILLIE B M 35 46.2-301 DRIVING W/SUSPENDED OR REVOKED LICENSE 2018001357
2/4/2018 0710 HENDERSON, RASHIQUE CAMILLIE B M 35 46.2-1014 DEFECTIVE BRAKE LIGHTS 2018001357
2/4/2018 0729 PERRY, CARLOS MIQUEL B M 40 18.2-266 DRIVING UNDER THE INFLUENCE OF ALCOHOL
2/4/2018 1134 YAKSTIS, KATHLEEN DALE W F 60 19.2-306|[F] REVOCATION OF SUSPENDED SENTENCE AND PROBATION
2/4/2018 1412 JORDAN, QORTEZ LEVIN B M 22 18.2-51.6[F] STRANGULATION OF ANOTHER 2018001146
2/4/2018 1412 JORDAN, QORTEZ LEVIN B M 22 18.2-57.2|[M] ASSAULT & BATTERY - FAMILY MEMBER 2018001146
2/4/2018 1808 CRESSMAN, KEVIN JOHN W M 29 18.2-271.1 PROBATION, EDUCATION AND REHABILITATION
2/4/2018 1808 CRESSMAN, KEVIN JOHN W M 29 19.2-306|[M] REVOCATION OF SUSPENDED SENTENCE AND PROBATION
2/4/2018 2011 WIMBUSH, CRYSTAL B F 33 18.2-57|[M] ASSAULT & BATTERY
2/4/2018 2358 ARCHIBALD, JILL MARIE W F 50 18.2-250|[F] POSSESSION OF CONTROLLED SUBSTANCES 2018001379
2/4/2018 2358 ARCHIBALD, JILL MARIE W F 50 18.2-250|[F] POSSESSION OF CONTROLLED SUBSTANCES 2018001379
2/4/2018 2358 ARCHIBALD, JILL MARIE W F 50 54.1-3466 POSSESS, DISTRIBUTE CONTROLLED PARAPHERNALIA 2018001379
2/4/2018 12:40:00 AM 0001 COWAN, KEVIN LEE W M 47 46.2-862 RECKLESS DRIVING - EXCESSIVE SPEED
2/4/2018 1:24:00 AM 0124 NORMAN, KENDRA L B F 20 18.2-57|[M] ASSAULT & BATTERY 2018001324
2/4/2018 4:06:00 AM 0406 DILDY, TERRY S B M 56 18.2-102|[F] UNAUTHORIZED USE OF VEHICLE, BOAT OR ANIMAL 2018000660
2/4/2018 4:30:00 AM 0430 RIDLEY, KEVIN ISAIAH B M 38 18.2-456 CONTEMPT OF COURT
2/5/2018 0030 POLLARD, JOSEPH LAMONTE B M 38 18.2-266|[M] DRIVING UNDER THE INFLUENCE OF ALCOHOL
2/5/2018 0030 POLLARD, JOSEPH LAMONTE B M 38 18.2-268.2 REFUSE BLOOD/BREATH TEST
2/5/2018 0030 POLLARD, JOSEPH LAMONTE B M 38 46.2-301 DRIVING W/SUSPENDED OR REVOKED LICENSE
2/5/2018 0057 WOODS, MARK ANTHONY B M 39 18.2-57.2|[M] ASSAULT & BATTERY - FAMILY MEMBER 2018001382
2/5/2018 0143 HARPER, FRANK LITTLEJOE B M 34 18.2-51 FELONIOUS ASSAULT 2018001276
2/5/2018 0143 HARPER, FRANK LITTLEJOE B M 34 18.2-137|[F] DESTRUCTION OF PROPERTY GENERAL -VALUE >=$1000 2018001276
2/5/2018 0143 HARPER, FRANK LITTLEJOE B M 34 46.2-894 ACCIDENTS - HIT AND RUN RESULTING IN INJ 2018001276
2/5/2018 0143 HARPER, FRANK LITTLEJOE B M 34 16.1-279.1 PROTECTIVE ORDER IN CASES OF FAMILY ABUS 2018001276
2/5/2018 0311 GASTON, MONTIQUE TREYMAYNE B M 30 18.2-266|[F] DUI - THIRD OR SUBSEQUENT OFFENSE 2018001386
2/5/2018 0311 GASTON, MONTIQUE TREYMAYNE B M 30 46.2-300 NO DRIVERS LICENSE 2018001386
2/5/2018 0431 HOWARD, FYIELLE LYNN B F 36 18.2-57.2|[M] ASSAULT & BATTERY - FAMILY MEMBER 2018001388
2/5/2018 0530 SCHMIDT, JOSHUA JEFFREY W M 28 18.2-266 DRIVING UNDER THE INFLUENCE OF ALCOHOL 2018001394
2/5/2018 0930 PERKINS, JESSICA DARNETA B F 39 18.2-57.2|[M] ASSAULT & BATTERY - FAMILY MEMBER 2017014973
2/5/2018 0955 CLARK TAYLOR, SHAKETA MONIQUE B F 37 18.2-456 CONTEMPT OF COURT
2/5/2018 1030 WATSON, DARQUISE DESHAUN B M 27 18.2-456 CONTEMPT OF COURT
2/5/2018 1100 WILLIAMS, WILLIAM CHARLES W M 51 19.2-306|[F] REVOCATION OF SUSPENDED SENTENCE AND PROBATION 9999249281
2/5/2018 1100 TUCKER, TONYA W F 32 16.1-292 VIOLATION OF COURT ORDER
2/5/2018 1200 GATES, WILLIAM WASHINGTON B M 54 18.2-57|[M] ASSAULT & BATTERY 2018001351
2/5/2018 1200 GATES, WILLIAM WASHINGTON B M 54 18.2-57|[M] ASSAULT & BATTERY 2018001351
2/5/2018 1224 MACKEY, IONAE LAVONYA B F 41 18.2-52 INJURY - CAUSTIC AGENT, EXPLOSIVE OR FIRE 2017015121
2/5/2018 1447 SHOWALTER, JEFFREY RAYMOND JR W M 20 18.2-91|[F] BREAKING & ENTER W/INT TO COMMIT FELONY 2018001409
2/5/2018 1509 ELLIS, JACQUE MONIQUE B F 31 18.2-456 CONTEMPT OF COURT
2/5/2018 1530 MALAWI, AMOURI ADONIS B M 28 18.2-137|[F] DESTRUCTION OF PROPERTY GENERAL -VALUE >=$1000 2018001368
2/5/2018 1530 MALAWI, AMOURI ADONIS B M 28 18.2-57|[M] ASSAULT & BATTERY 2018001368
2/5/2018 1530 MALAWI, AMOURI ADONIS B M 28 18.2-95 GRAND LARCENY 2018001368
2/5/2018 1611 KENDRICK, JENNIFER DAWN W F 28 19.2-306|[F] REVOCATION OF SUSPENDED SENTENCE AND PROBATION
2/5/2018 1627 MAGEE, SHANITA NICOLE B F 38 18.2-456 CONTEMPT OF COURT
2/5/2018 1635 DEYERLE, CHARLES WALTON JR W M 55 18.2-95 GRAND LARCENY 2017017287
2/5/2018 1635 DEYERLE, CHARLES WALTON JR W M 55 18.2-95 GRAND LARCENY 2017017287
2/5/2018 1635 DEYERLE, CHARLES WALTON JR W M 55 18.2-95 GRAND LARCENY 2017017287
2/5/2018 1635 DEYERLE, CHARLES WALTON JR W M 55 18.2-96|[M] PETIT LARCENY 2017017287
2/5/2018 1635 DEYERLE, CHARLES WALTON JR W M 55 18.2-178|[M] OBTAINING MONEY BY FALSE PRETENSES 2017017287
2/5/2018 1635 DEYERLE, CHARLES WALTON JR W M 55 18.2-178|[M] OBTAINING MONEY BY FALSE PRETENSES 2017017287
2/5/2018 1635 DEYERLE, CHARLES WALTON JR W M 55 18.2-178|[M] OBTAINING MONEY BY FALSE PRETENSES 2017017287
2/5/2018 1635 DEYERLE, CHARLES WALTON JR W M 55 18.2-178|[M] OBTAINING MONEY BY FALSE PRETENSES 2017017287
2/5/2018 1714 DAVENPORT, AMANDA GRACE W F 29 18.2-371.1 ABUSE AND NEGLECT OF CHILDREN 2018001419
2/5/2018 1714 DAVENPORT, AMANDA GRACE W F 29 18.2-250|[F] POSSESSION OF CONTROLLED SUBSTANCES 2018001419
2/5/2018 1721 ALLEN, BRIAN STEVEN B M 33 19.2-306|[F] REVOCATION OF SUSPENDED SENTENCE AND PROBATION 9999249063
2/5/2018 1721 ALLEN, BRIAN STEVEN B M 33 19.2-306|[M] REVOCATION OF SUSPENDED SENTENCE AND PROBATION 9999249063
2/5/2018 1925 BUTTS, GERALD ANTHONY B M 37 18.2-456 CONTEMPT OF COURT
2/5/2018 2211 CARR, FELICIA B F 57 18.2-102|[F] UNAUTHORIZED USE OF VEHICLE, BOAT OR ANIMAL 2018001286
2/5/2018 2321 OUTLAW, SHAWN LAMONT B M 45 18.2-102|[F] UNAUTHORIZED USE OF VEHICLE, BOAT OR ANIMAL
2/5/2018 9:58:00 AM 0958 BRITT, JAMAL AL B M 21 18.2-456 CONTEMPT OF COURT
2/5/2018 11:11:00 AM 1111 WALLACE, SUMMER CATRICE B F 23 18.2-57.2|[M] ASSAULT & BATTERY - FAMILY MEMBER 2018001197
2/5/2018 8:21:00 PM 2021 CAFFEE, JOHNNY RONDELL III B M 26 19.2-306|[F] REVOCATION OF SUSPENDED SENTENCE AND PROBATION
2/6/2018 0001 GREGORICH, DANIEL W M 42 22-18 DISTRIBUTION SOLICITATION SALES ON HIGHWAYS ROADWAYS 2018001452
2/6/2018 0046 WILLIAMS, ERIC CORNELIUS B M 58 18.2-456 CONTEMPT OF COURT
2/6/2018 0046 WILLIAMS, ERIC CORNELIUS B M 58 16.1-278.16 FAIL TO COMPLY WITH SUPPORT OBLIGATIONS
2/6/2018 0128 JOHNSON, RASHAWN DEONTE B M 24 18.2-456 CONTEMPT OF COURT
2/6/2018 0415 ROSEMAN, RUDOLPH ANDREW JR B M 35 18.2-250.1 POSSESSION OF MARIJUANA 2018001434
2/6/2018 0415 ROSEMAN, RUDOLPH ANDREW JR B M 35 18.2-308.2 POSSESS, TRANSPORT FIREARMS BY CONVICTED FELONS 2018001434
2/6/2018 0415 ROSEMAN, RUDOLPH ANDREW JR B M 35 18.2-308|[M] CARRYING CONCEALED WEAPON -1ST OFFENSE 2018001434
2/6/2018 0447 GORHAM, LEONARD JEROME B M 30 18.2-250.1 POSSESSION OF MARIJUANA 2018001434
2/6/2018 0447 GORHAM, LEONARD JEROME B M 30 18.2-308.2 POSSESS, TRANSPORT FIREARMS BY CONVICTED FELONS 2018001434
2/6/2018 0447 GORHAM, LEONARD JEROME B M 30 18.2-308|[F] CARRYING CONCEALED WEAPON -SUBSQ OFFENSE 2018001434
2/6/2018 0529 WILKINS, DARRELL WILLIAM B M 25 18.2-250.1 POSSESSION OF MARIJUANA 2018001434
2/6/2018 0529 WILKINS, DARRELL WILLIAM B M 25 18.2-308.2 POSSESS, TRANSPORT FIREARMS BY CONVICTED FELONS 2018001434
2/6/2018 0529 WILKINS, DARRELL WILLIAM B M 25 18.2-308|[M] CARRYING CONCEALED WEAPON -1ST OFFENSE 2018001434
2/6/2018 1150 RUDOLPH, AUDRIANA S W F 27 18.2-456 CONTEMPT OF COURT
2/6/2018 1258 JOYNER, DA`MEISHA LASHE` B F 25 18.2-51 FELONIOUS ASSAULT 2017014318
2/6/2018 1258 JOYNER, DA`MEISHA LASHE` B F 25 18.2-460[M] OBSTRUCT/RESIST 2017014318
2/6/2018 1258 JOYNER, DA`MEISHA LASHE` B F 25 18.2-460[M] OBSTRUCT/RESIST 2017014318
2/6/2018 1258 JOYNER, DA`MEISHA LASHE` B F 25 18.2-57|[M] ASSAULT & BATTERY 2017014318
2/6/2018 1258 JOYNER, DA`MEISHA LASHE` B F 25 18.2-57|[M] ASSAULT & BATTERY 2017014318
2/6/2018 1258 JOYNER, DA`MEISHA LASHE` B F 25 18.2-57|[M] ASSAULT & BATTERY 2017014318
2/6/2018 1258 JOYNER, DA`MEISHA LASHE` B F 25 18.2-456 CONTEMPT OF COURT
2/6/2018 1515 JOHNSON, ANTHONE MICHAEL B M 29 18.2-57.2|[M] ASSAULT & BATTERY - FAMILY MEMBER 2018001204
2/6/2018 1532 HUNTER, JORDAN CHRISTOPHER B M 24 18.2-117|[F] FAILURE OF BAILEE TO RETURN PROPERTY >=$200
2/6/2018 1722 MOURNING, KEYON TEAUREAN B M 36 18.2-456 CONTEMPT OF COURT
2/6/2018 1943 WEINSCHEL, ALEXANDER NOAH W M 30 18.2-32|[F][B] MURDER - SECOND DEGREE 2017012149
2/6/2018 1943 WEINSCHEL, ALEXANDER NOAH W M 30 18.2-53.1 USE OR DISPLAY FIREARM IN COMMISSION OF FELONY 2017012149
2/6/2018 2243 FAUNTLEROY, ARTABUS SR B M 48 19.2-303.3 VIOLATION OF COMMUNITY CORRECTIONS PROGRAM
2/6/2018 2315 LANGSTON, MARTINA M B F 37 18.2-256|[F] CONSPIRACY TO VIOLATE DRUG CONTROL ACT -FELONY 2018001473
2/6/2018 2315 LANGSTON, MARTINA M B F 37 18.2-248|[F] MANUF, SALE, POSSESSION CONTROLLED SUBSTANCE 2018001473
2/6/2018 2315 LANGSTON, MARTINA M B F 37 18.2-250.1|[M] POSSESSION OF MARIJUANA 2018001473
2/6/2018 10:34:00 AM 1034 BUNCH, ANTONIO K B M 36 18.2-282|[M] BRANDISHING FIREARM
2/7/2018 0001 WINFIELD, RYAN DAREL B M 23 18.2-456 CONTEMPT OF COURT
2/7/2018 0626 WALSH, CHRISTOPHER MASON W M 42 46.2-301 DRIVING W/SUSPENDED OR REVOKED LICENSE 9999249056
2/7/2018 1017 KAY, SAMUEL LEWIS JR B M 48 24-253 ALCOHOL - OPEN CONTAINER OF AN ALCOHOLIC BEVERAGE IN ANY PUB 2018001491
2/7/2018 1200 CLARK, QUASHAWN DA`VONTA B M 19 18.2-57.2|[M] ASSAULT & BATTERY - FAMILY MEMBER 2018001029
2/7/2018 1214 GILDON, JOSHUA HARRIS W M 30 18.2-456 CONTEMPT OF COURT
2/7/2018 1216 NIXON, LAMONTE B M 43 16.1-278.16 FAIL TO COMPLY WITH SUPPORT OBLIGATIONS 9999249060
2/7/2018 1227 ALBERTSON, CRYSTAL L W F 37 46.2-301 DRIVING W/SUSPENDED OR REVOKED LICENSE 9999249277
2/7/2018 1304 COSTON, CORNELIUS RODNEY B M 57 18.2-456 CONTEMPT OF COURT 9999249137
2/7/2018 1310 CLARK, MARIA LATISHA B F 35 18.2-427 PROFANE, THREATENING LANGUAGE OVER PUBLI
2/7/2018 1310 CLARK, MARIA LATISHA B F 35 18.2-137|[F] DESTRUCTION OF PROPERTY GENERAL -VALUE >=$1000 2018001105
2/7/2018 1358 BRADSHAW, JOSHUA R W M 36 18.2-456 CONTEMPT OF COURT
2/7/2018 1444 FAULK, ROBERT ANTHONY B M 52 18.2-67.4 SEXUAL BATTERY 2018001426
2/7/2018 1444 FAULK, ROBERT ANTHONY B M 52 18.2-67.2 OBJECT SEXUAL PENETRATION 2018001426
2/7/2018 1930 SMITH, GENIYA BRITTEE B F 23 18.2-60.4 [M] VIOLATION OF STALKING PROTECTIVE ORDER
2/7/2018 2022 WOODRUFF, MELISSA JOVANI W F 27 8.01-508 FAIL TO APPEAR ON CIVIL MATTER
2/7/2018 2126 BAXTER, TYQUAN LAMONTRE B M 24 18.2-456 CONTEMPT OF COURT 9999249164
2/7/2018 2345 BOONE, HENRY MONZEL B M 50 18.2-456 CONTEMPT OF COURT
2/8/2018 0800 ZEISET, KENNETH W W M 31 18.2-371.1 ABUSE AND NEGLECT OF CHILDREN
2/8/2018 1342 WILLIAMS, DERWIN DAMON B M 59 24-258 PUBLIC DRUNKENNESS 2018001534
2/8/2018 1425 SLYE, MICHAEL JAMES W M 43 18.2-308.2:2|[F] FIREARM PURCHASE OR DEALER VIOLATION
2/8/2018 1548 HUBBARD, LEAH HUNTIR B F 24 18.2-456 CONTEMPT OF COURT
2/8/2018 1548 HUBBARD, LEAH HUNTIR B F 24 18.2-456 CONTEMPT OF COURT
2/8/2018 1549 STACKHOUSE, SABRINA ANN B F 47 18.2-456 CONTEMPT OF COURT
2/8/2018 1549 STACKHOUSE, SABRINA ANN B F 47 18.2-250|[F] POSSESSION OF CONTROLLED SUBSTANCES 2018001540
2/8/2018 1630 WOLFE, JAMES DARREL B M 26 18.2-456 CONTEMPT OF COURT
2/8/2018 1714 SOUTHALL, ERICA MONIQUE B F 30 18.2-456 CONTEMPT OF COURT
2/8/2018 1720 WALLACE, ANTHONY B M 56 18.2-248|[F] MANUF, SALE, POSSESSION CONTROLLED SUBSTANCE 2018001541
2/8/2018 1933 SATTERWHITE, DARIN MONTA B M 39 18.2-248|[F] MANUF, SALE, POSSESSION CONTROLLED SUBSTANCE 2017006801
2/8/2018 1933 SATTERWHITE, DARIN MONTA B M 39 18.2-248|[F] MANUF, SALE, POSSESSION CONTROLLED SUBSTANCE 2017007061
2/8/2018 2150 BROWN, MICHAEL ANTHONY SR B M 57 18.2-456 CONTEMPT OF COURT
2/8/2018 2154 LOCKLEY, THERESA NELL W F 54 18.2-456 CONTEMPT OF COURT
2/8/2018 2216 MCINTYRE, MICHAEL SHAUNTII B M 37 19.2-128|[M] FAIL TO APPEAR ON MISDEMEANOR CHARGE
2/8/2018 2230 WILLIAMS, JOHNATHAN JAY III B M 23 18.2-456 CONTEMPT OF COURT
2/8/2018 2230 WILLIAMS, JOHNATHAN JAY III B M 23 18.2-58 ROBBERY 2017015420
2/8/2018 2230 WILLIAMS, JOHNATHAN JAY III B M 23 18.2-22 CONSPIRACY TO COMMIT FELONY 2017015420
2/8/2018 2230 WILLIAMS, JOHNATHAN JAY III B M 23 18.2-95 GRAND LARCENY 2017015420
2/8/2018 2348 BEALE, ROGER LASALE B M 46 18.2-250|[F] POSSESSION OF CONTROLLED SUBSTANCES 2018001556
2/8/2018 2348 BEALE, ROGER LASALE B M 46 18.2-456 CONTEMPT OF COURT
2/8/2018 2358 SHEA, BRYAN PATRICK W M 29 19.2-303.3 VIOLATION OF COMMUNITY CORRECTIONS PROGRAM
2/8/2018 2358 SHEA, BRYAN PATRICK W M 29 19.2-128|[M] FAIL TO APPEAR ON MISDEMEANOR CHARGE
2/8/2018 5:30:00 PM 1730 JORDAN, ANTONIO DARREN B M 44 19.2-306|[F] REVOCATION OF SUSPENDED SENTENCE AND PROBATION
2/9/2018 0001 HARRIS, BRITTNEE A B F 27 18.2-456 CONTEMPT OF COURT
2/9/2018 0059 JACKSON, KAHLIA WILLIAMS B M 22 46.2-938 FAILURE TO APPEAR FOR TRAFFIC SUMMONS
2/9/2018 0059 JACKSON, KAHLIA WILLIAMS B M 22 18.2-456 CONTEMPT OF COURT
2/9/2018 0425 WARD, MARK LEE B M 47 18.2-323.1 DRINKING WHILE OPERATING MOTOR VEHICLE 2018001590
2/9/2018 0425 WARD, MARK LEE B M 47 46.2-301 DRIVING W/SUSPENDED OR REVOKED LICENSE 2018001590
2/9/2018 0425 WARD, MARK LEE B M 47 18.2-460[M] OBSTRUCT/RESIST 2018001590
2/9/2018 0425 WARD, MARK LEE B M 47 18.2-250|[F] POSSESSION OF CONTROLLED SUBSTANCES 2018001590
2/9/2018 0854 BLOW, RONALD LYDELL B M 39 18.2-472.1|[F] FAIL TO REGISTER OR FALSE INFO - VIOL SEX OFFNDR 9999249282
2/9/2018 0854 BLOW, RONALD LYDELL B M 39 18.2-472.1|[F] FAIL TO REGISTER OR FALSE INFO - VIOL SEX OFFNDR 9999249282
2/9/2018 0930 HAYNES, CHRIS LYNN W F 36 18.2-456 CONTEMPT OF COURT
2/9/2018 1021 JACKSON, CHAY CHANTEL B F 33 18.2-57|[M] ASSAULT & BATTERY
2/9/2018 1021 JACKSON, CHAY CHANTEL B F 33 18.2-57|[M] ASSAULT & BATTERY
2/9/2018 1021 JACKSON, CHAY CHANTEL B F 33 18.2-42 ASSAULT OR BATTERY BY MOB
2/9/2018 1021 JACKSON, CHAY CHANTEL B F 33 19.2-152.10 PROTECTIVE ORDER
2/9/2018 1113 COGGINS, THOMAS WAYNE W M 40 18.2-95|[V] MOTOR VEHICLE THEFT 2018001569
2/9/2018 1130 JOHNSON, DAVID JUNIOUS SR B M 64 18.2-111|[F] EMBEZZLEMENT >=$200
2/9/2018 1150 BAKER, TAMIKO NICOLE B F 37 18.2-119 TRESPASSING
2/9/2018 1250 WILLIAMS, JEROME VICTOR B M 58 18.2-57|[M] ASSAULT & BATTERY
2/9/2018 1425 BOYD, TROY B M 39 18.2-282|[M] BRANDISHING FIREARM
2/9/2018 1430 CUMMINS, ROBERT LEE W M 71 3.2-6540 CONTROL OF DANGEROUS OR VICIOUS DOGS; PENALTIES.
2/9/2018 1500 PATTERSON, WILL RASHEEM SR B M 39 18.2-248|[F] MANUF, SALE, POSSESSION CONTROLLED SUBSTANCE 2018001583
2/9/2018 1500 PATTERSON, WILL RASHEEM SR B M 39 18.2-248|[F] MANUF, SALE, POSSESSION CONTROLLED SUBSTANCE 2018001583
2/9/2018 1500 PATTERSON, WILL RASHEEM SR B M 39 18.2-308.2 POSSESS, TRANSPORT FIREARMS BY CONVICTED FELONS 2018001583
2/9/2018 1510 THOMAS, VICTOR LEVOHN B M 54 18.2-456 CONTEMPT OF COURT
2/9/2018 1545 SPARRER, GREGORY KEITH W M 52 18.2-119 TRESPASSING 2018001588
2/9/2018 1650 MACKLIN, AIRRION DENARD B M 44 18.2-119 TRESPASSING
2/9/2018 1749 ANDERSON, TYRIC COLBY B M 19 18.2-57|[M] ASSAULT & BATTERY 2018001600
2/9/2018 1749 ANDERSON, TYRIC COLBY B M 19 18.2-57|[M] ASSAULT & BATTERY 2018001600
2/9/2018 1754 THOMAS, KAILEB DAIQUAN B M 20 18.2-456 CONTEMPT OF COURT 9999249173
2/9/2018 1901 DOCKERY, FELICIA MARIA B F 52 18.2-51 FELONIOUS ASSAULT 2018001322
2/9/2018 2010 KELLO, KEITH ANTHONY B M 28 19.2-306|[F] REVOCATION OF SUSPENDED SENTENCE AND PROBATION
2/9/2018 2020 WESTON, STANLEY LAMAR B M 40 18.2-96|[F] LARCENY OR THEFT (3RD OR SUBSQ OFFENSE) 2017014285
2/9/2018 2155 ODONNELL, MICHAEL ARTHUR W M 54 19.2-306|[F] REVOCATION OF SUSPENDED SENTENCE AND PROBATION
2/10/2018 0447 BUCKNER, JAMAINE KESHAWN B M 26 18.2-95 GRAND LARCENY
2/10/2018 0946 BROWN, TONY B M 61 18.2-119 TRESPASSING
2/10/2018 1045 HARRISON, QUASHAWN TYMAR B M 20 18.2-96|[M] PETIT LARCENY 2018001633
2/10/2018 1750 HARRISON, QUASHAWN TYMAR B M 20 18.2-456 CONTEMPT OF COURT
2/10/2018 1750 HARRISON, QUASHAWN TYMAR B M 20 18.2-456 CONTEMPT OF COURT
2/10/2018 1855 DIGGS, ANTHONY JERROD B M 47 18.2-95 GRAND LARCENY 2018001632
2/10/2018 2005 ALBERTSON, JOHN MILTON JR W M 38 18.2-250|[F] POSSESSION OF CONTROLLED SUBSTANCES 2018001630
2/10/2018 2005 ALBERTSON, JOHN MILTON JR W M 38 54.1-3466 POSSESS, DISTRIBUTE CONTROLLED PARAPHERNALIA 2018001630
2/10/2018 2005 ALBERTSON, JOHN MILTON JR W M 38 19.2-82.1 FALSE IDENTIFY SELF TO LAW ENFORCEMENT 2018001630
2/10/2018 2005 ALBERTSON, JOHN MILTON JR W M 38 19.2-306|[F] REVOCATION OF SUSPENDED SENTENCE AND PROBATION
2/10/2018 2005 ALBERTSON, JOHN MILTON JR W M 38 19.2-306|[F] REVOCATION OF SUSPENDED SENTENCE AND PROBATION
2/10/2018 2005 ALBERTSON, JOHN MILTON JR W M 38 19.2-306|[F] REVOCATION OF SUSPENDED SENTENCE AND PROBATION
2/10/2018 2005 ALBERTSON, JOHN MILTON JR W M 38 19.2-306|[F] REVOCATION OF SUSPENDED SENTENCE AND PROBATION
2/10/2018 2100 BARNES, THOMAS LEE SR B M 62 18.2-266|[M] DRIVING UNDER THE INFLUENCE OF ALCOHOL 2018001634
2/10/2018 2100 BARNES, THOMAS LEE SR B M 62 46.2-301 DRIVING W/SUSPENDED OR REVOKED LICENSE 2018001634
2/10/2018 2127 SHEROD, WALLACE COOPER B M 63 18.2-456 CONTEMPT OF COURT
2/10/2018 2127 SHEROD, WALLACE COOPER B M 63 18.2-456 CONTEMPT OF COURT
2/10/2018 2127 SHEROD, WALLACE COOPER B M 63 18.2-271.1 PROBATION, EDUCATION AND REHABILITATION
2/10/2018 2127 SHEROD, WALLACE COOPER B M 63 19.2-306|[M] REVOCATION OF SUSPENDED SENTENCE AND PROBATION
2/10/2018 2143 HILL, KORI PATRICK B M 40 18.2-57.2|[M] ASSAULT & BATTERY - FAMILY MEMBER 2018001639
2/10/2018 2246 JONES, ERIC PERCELL JR B M 25 18.2-456 CONTEMPT OF COURT
2/10/2018 2246 JONES, ERIC PERCELL JR B M 25 18.2-248|[F] MANUF, SALE, POSSESSION CONTROLLED SUBSTANCE 2018001641
2/10/2018 4:47:00 AM 0447 BUCKNER, JAMAINE KESHAWN B M 26 18.2-95 GRAND LARCENY 2018000988
2/11/2018 0006 WILLIAMS, DUANE BERNARD B M 34 18.2-266|[M] DRIVING UNDER THE INFLUENCE OF ALCOHOL 2018001644
2/11/2018 0006 WILLIAMS, DUANE BERNARD B M 34 18.2-268.3 REFUSE BLOOD/BREATH TEST 2018001644
2/11/2018 0006 WILLIAMS, DUANE BERNARD B M 34 24-253 ALCOHOL - OPEN CONTAINER OF AN ALCOHOLIC BEVERAGE IN ANY PUB 2018001644
2/11/2018 0006 WILLIAMS, DUANE BERNARD B M 34 46.2-301 DRIVING W/SUSPENDED OR REVOKED LICENSE 2018001644
2/11/2018 0203 HAYES, SHAKEMA EVELYN B F 35 18.2-102|[F] UNAUTHORIZED USE OF VEHICLE, BOAT OR ANIMAL 2017016821
2/11/2018 1230 WEINSCHEL, ZEBULON GEORGE W M 36 18.2-32|[F][A] MURDER - FIRST DEGREE 2017012149
2/11/2018 1230 WEINSCHEL, ZEBULON GEORGE W M 36 18.2-58 ROBBERY 2017012149
2/11/2018 1230 WEINSCHEL, ZEBULON GEORGE W M 36 18.2-53.1 USE OR DISPLAY FIREARM IN COMMISSION OF 2017012149
2/11/2018 1230 WEINSCHEL, ZEBULON GEORGE W M 36 18.2-308.2 POSSESS, TRANSPORT FIREARMS BY CONVICTED 2017012149
2/11/2018 1340 ARTIS, NYISHA JANAE B F 28 18.2-456 CONTEMPT OF COURT
2/11/2018 1930 MORRIS, GILBERT WAYNE W M 67 24-258 PUBLIC DRUNKENNESS 2018001678
2/11/2018 2050 SPRINGS, NEDRA TAYLOR B F 55 18.2-456 CONTEMPT OF COURT
2/11/2018 2155 MITCHELL, DONNELL DAQWAUN B M 20 18.2-250.1 POSSESSION OF MARIJUANA
2/11/2018 2300 MITCHELL, DONNELL DAQWAUN B M 20 18.2-456 CONTEMPT OF COURT
2/11/2018 2325 LEARY, ANDRE JAMEAL B M 28 18.2-308.2 POSSESS, TRANSPORT FIREARMS BY CONVICTED FELONS
2/11/2018 2325 LEARY, ANDRE JAMEAL B M 28 18.2-95 GRAND LARCENY
2/11/2018 2325 LEARY, ANDRE JAMEAL B M 28 18.2-95 GRAND LARCENY
2/11/2018 2325 LEARY, ANDRE JAMEAL B M 28 18.2-108.01 STOLEN PROPERTY: W/ INTENT TO SELL, LARCENY>$200
2/12/2018 0001 CORBETT, ANITA DENISE B F 50 18.2-456 CONTEMPT OF COURT
2/12/2018 0057 BAILEY, KEVIN DESHAWN B M 43 18.2-266|[M] DRIVING UNDER THE INFLUENCE OF ALCOHOL 2018001679
2/12/2018 0057 BAILEY, KEVIN DESHAWN B M 43 18.2-268.3 REFUSE BLOOD/BREATH TEST 2018001679
2/12/2018 0232 RODGERS, DANIEL CHRISTIAN B M 22 24-258 PUBLIC DRUNKENNESS 2018001691
2/12/2018 0732 KING, TRAMANE DONNELL B M 41 19.2-306|[F] REVOCATION OF SUSPENDED SENTENCE AND PROBATION
2/12/2018 0900 SALEM, MOHAMMED KHALID U M 32 18.2-95 GRAND LARCENY
2/12/2018 1004 TAYLOR, JULIE MOSEBERTH W F 36 8.01-508 FAIL TO APPEAR ON CIVIL MATTER
2/12/2018 1040 CAINE, KEANU CHRISTOPHER B M 22 18.2-279 DISCHARGE FIREARM OR MISSILE IN/AT OCCUPIED BLDG 2018001263
2/12/2018 1040 CAINE, KEANU CHRISTOPHER B M 22 18.2-286.1 SHOOTING FROM VEHICLES 2018001263
2/12/2018 1040 CAINE, KEANU CHRISTOPHER B M 22 18.2-280|[M] DISCHARGE FIREARM IN PUBLIC PLACE 2018001263
2/12/2018 1133 CAFFEE, JOHNNY RONDELL III B M 26 19.2-306|[F] REVOCATION OF SUSPENDED SENTENCE AND PROBATION
2/12/2018 1156 LARKIN, TIMOTHY PATRICK W M 63 18.2-456 CONTEMPT OF COURT
2/12/2018 1209 BOONE, BRELAND EDWARD B M 30 46.2-817|[F] ELUDING POLICE - ENDANGER PERSONS OR POLICE CAR 2018001206
2/12/2018 1209 BOONE, BRELAND EDWARD B M 30 46.2-894 ACCIDENTS - HIT AND RUN RESULTING IN INJ 2018001206
2/12/2018 1209 BOONE, BRELAND EDWARD B M 30 18.2-460[M] OBSTRUCT/RESIST 2018001206
2/12/2018 1209 BOONE, BRELAND EDWARD B M 30 46.2-301 DRIVING W/SUSPENDED OR REVOKED LICENSE 2018001206
2/12/2018 1209 BOONE, BRELAND EDWARD B M 30 46.2-830 FAIL TO OBEY SIGNS/ BOND SURRENDER/ IMPR 2018001206
2/12/2018 1209 BOONE, BRELAND EDWARD B M 30 18.2-371.1 ABUSE AND NEGLECT OF CHILDREN 2018001206
2/12/2018 1240 FREEMAN, BRANDY NICOLE W F 33 PB-15 PAROLE BOARD WARRANT - PB15
2/12/2018 1320 PENDRY, BRANDY MICHELLE W F 41 18.2-250|[F] POSSESSION OF CONTROLLED SUBSTANCES 2018001708
2/12/2018 1338 CRIVARO, CHRISTOPHER ANTHONY W M 45 18.2-250|[F] POSSESSION OF CONTROLLED SUBSTANCES 2018001708
2/12/2018 1350 BROOKS, RASHEEM OMAR B M 35 18.2-456 CONTEMPT OF COURT 9999249259
2/12/2018 1412 BOYCE, JUSTIN LEE W M 22 19.2-306|[F] REVOCATION OF SUSPENDED SENTENCE AND PROBATION
2/12/2018 1412 BOYCE, JUSTIN LEE W M 22 19.2-306|[F] REVOCATION OF SUSPENDED SENTENCE AND PROBATION
2/12/2018 1554 ANDERSON, BYRON THOMAS JR B M 34 18.2-370 TAKING INDECENT LIBERTIES WITH CHILD 2017011937
2/12/2018 1554 ANDERSON, BYRON THOMAS JR B M 34 18.2-371 CONTRIBUTING TO THE DELINQUENCY OF A MINOR 2017011937
2/12/2018 1554 ANDERSON, BYRON THOMAS JR B M 34 18.2-371 CONTRIBUTING TO THE DELINQUENCY OF A MINOR 2017011937
2/12/2018 1640 BATTLE, ELVIN THOMAS B M 54 18.2-96|[F] LARCENY OR THEFT (3RD OR SUBSQ OFFENSE) 2018001721
2/12/2018 1705 DIGGS, ANTHONY JERROD B M 47 19.2-123 VIOLATE CONDITION OF RELEASE
2/12/2018 1752 WARD, MANNDOM GRANDELL B M 39 19.2-306|[F] REVOCATION OF SUSPENDED SENTENCE AND PROBATION
2/12/2018 1752 WARD, MANNDOM GRANDELL B M 39 19.2-306|[F] REVOCATION OF SUSPENDED SENTENCE AND PROBATION
2/12/2018 1752 WARD, MANNDOM GRANDELL B M 39 19.2-306|[F] REVOCATION OF SUSPENDED SENTENCE AND PROBATION
2/12/2018 1847 GATLING, ARMAD JAMALL B M 22 19.2-306|[F] REVOCATION OF SUSPENDED SENTENCE AND PROBATION
2/12/2018 1920 MCNEAL, BREON ALEXANDER B M 20 18.2-456 CONTEMPT OF COURT
2/12/2018 2250 GRIFFIN, ONIEKA LUGERTHA B F 32 19.2-306|[F] REVOCATION OF SUSPENDED SENTENCE AND PROBATION
2/12/2018 2250 GRIFFIN, ONIEKA LUGERTHA B F 32 19.2-306|[F] REVOCATION OF SUSPENDED SENTENCE AND PROBATION
2/12/2018 8:58:00 AM 0858 DYSON, MAURICE EDWARD B M 50 18.2-456 CONTEMPT OF COURT
2/13/2018 0101 GORE, JAMIL ANTONIO B M 24 18.2-57.2|[M] ASSAULT & BATTERY - FAMILY MEMBER 2018000017
2/13/2018 0715 FLOOD, DERRICK DONTA B M 26 18.2-186.3 IDENTITY THEFT: USE TO AVOID ARREST
2/13/2018 0900 LATIMER, ROCHELLE C W F 71 18.2-266 DRIVING UNDER THE INFLUENCE OF ALCOHOL
2/13/2018 0900 JOURNIGAN, JAMES ADAM W M 26 46.2-852 RECKLESS - GENERAL
2/13/2018 0920 TURNER, TA`QUAN RAYSHAUD B M 21 19.2-306|[F] REVOCATION OF SUSPENDED SENTENCE AND PROBATION
2/13/2018 0920 TURNER, TA`QUAN RAYSHAUD B M 21 19.2-306|[F] REVOCATION OF SUSPENDED SENTENCE AND PROBATION
2/13/2018 0920 TURNER, TA`QUAN RAYSHAUD B M 21 19.2-306|[F] REVOCATION OF SUSPENDED SENTENCE AND PROBATION
2/13/2018 0920 TURNER, TA`QUAN RAYSHAUD B M 21 19.2-306|[F] REVOCATION OF SUSPENDED SENTENCE AND PROBATION
2/13/2018 0920 TURNER, TA`QUAN RAYSHAUD B M 21 19.2-306|[F] REVOCATION OF SUSPENDED SENTENCE AND PROBATION
2/13/2018 0920 TURNER, TA`QUAN RAYSHAUD B M 21 19.2-306|[F] REVOCATION OF SUSPENDED SENTENCE AND PROBATION
2/13/2018 0930 TEST, TEST TEST II B M 28 18.2-361 CRIMES AGAINST NATURE
2/13/2018 1030 LEE, YVETTE DORRIEA B F 54 18.2-137|[M] DESTRUCTION OF PROPERTY, GENERAL 2018001656
2/13/2018 1030 LEE, YVETTE DORRIEA B F 54 18.2-137|[M] DESTRUCTION OF PROPERTY, GENERAL 2018001656
2/13/2018 1116 HEFFERNAN, MATTHEW WYATT W M 37 4-96 FAILURE TO ACQUIRE RABIES VACCINATION
2/13/2018 1116 HEFFERNAN, MATTHEW WYATT W M 37 4-61 CITY DOG LICENSE REQUIREMENT
2/13/2018 1158 POINTER, MARVIN DANTE B M 38 18.2-308.2 POSSESS, TRANSPORT FIREARMS BY CONVICTED 2018001081
2/13/2018 1340 TAYLOR, SHANE W M 45 18.2-57|[M] ASSAULT & BATTERY
2/13/2018 1400 VINSON, LATONYA NAKI B F 40 18.2-137|[M] DESTRUCTION OF PROPERTY, GENERAL 2018001663
2/13/2018 1400 VINSON, LATONYA NAKI B F 40 18.2-137|[M] DESTRUCTION OF PROPERTY, GENERAL 2018001663
2/13/2018 1404 ACOSTA, JEFFERSON BEUREGUARD W M 26 18.2-192 CREDIT CARD THEFT
2/13/2018 1404 ACOSTA, JEFFERSON BEUREGUARD W M 26 18.2-195|[F] CREDIT CARD FRAUD
2/13/2018 1432 GARRETT, ARIC DEVONTRAE B M 28 18.2-456 CONTEMPT OF COURT
2/13/2018 1633 RAMSEY, TERI KAREEN B F 24 46.2-862 RECKLESS DRIVING - EXCESSIVE SPEED 2018001782
2/13/2018 1633 RAMSEY, TERI KAREEN B F 24 18.2-479.1 FLEEING FROM LAW ENFORCEMENT OFFICER 2018001782
2/13/2018 1700 SOUIRI, RANIA W F 26 18.2-386.2 UNLAWFUL DISSEMINATION OF IMAGE
2/13/2018 1807 NEWTON, MAYA NICOLE B F 21 18.2-456 CONTEMPT OF COURT
2/13/2018 2005 MILLER, MORGAN W F 23 18.2-323.1 DRINKING WHILE OPERATING MOTOR VEHICLE
2/13/2018 2005 MILLER, MORGAN W F 23 18.2-250.1 POSSESSION OF MARIJUANA 2018001795
2/13/2018 2116 WIGGINS, REGINALD ALLEN JR B M 18 18.2-91|[F] BREAKING & ENTER W/INT TO COMMIT FELONY 2018001781
2/13/2018 2116 WIGGINS, REGINALD ALLEN JR B M 18 18.2-22 CONSPIRACY TO COMMIT FELONY 2018001781
2/13/2018 2116 WIGGINS, REGINALD ALLEN JR B M 18 18.2-460[M] OBSTRUCT/RESIST 2018001781
2/13/2018 2116 WIGGINS, REGINALD ALLEN JR B M 18 18.2-137|[M] DESTRUCTION OF PROPERTY, GENERAL 2018001781
2/13/2018 2136 LEWIS, ANGELIQUE MARY KATHERINE W F 32 18.2-248|[F] MANUF, SALE, POSSESSION CONTROLLED SUBSTANCE 2017005435
2/13/2018 2136 LEWIS, ANGELIQUE MARY KATHERINE W F 32 18.2-248|[F] MANUF, SALE, POSSESSION CONTROLLED SUBSTANCE 2017005435
2/13/2018 2136 LEWIS, ANGELIQUE MARY KATHERINE W F 32 18.2-248|[F] MANUF, SALE, POSSESSION CONTROLLED SUBSTANCE 2017005435
2/13/2018 2136 LEWIS, ANGELIQUE MARY KATHERINE W F 32 18.2-248|[F] MANUF, SALE, POSSESSION CONTROLLED SUBSTANCE 2017005435
2/13/2018 2136 LEWIS, ANGELIQUE MARY KATHERINE W F 32 18.2-248|[F] MANUF, SALE, POSSESSION CONTROLLED SUBSTANCE 2017005435
2/13/2018 2316 HUNT, JOHN ADOLPHUS JR B M 56 18.2-456 CONTEMPT OF COURT
2/13/2018 2316 HUNT, JOHN ADOLPHUS JR B M 56 18.2-186.3 IDENTITY THEFT: USE TO AVOID ARREST 2018001794
2/13/2018 2316 HUNT, JOHN ADOLPHUS JR B M 56 18.2-104 LARCENY OR THEFT (3RD OR SUBSQ OFFENSE) 2018001794
2/14/2018 0915 TURNER, TIMOTHY EUGENE B M 42 18.2-57.2|[M] ASSAULT & BATTERY - FAMILY MEMBER
2/14/2018 0930 HAMLIN, CLARENCE JEROME B M 37 18.2-57|[M] ASSAULT & BATTERY
2/14/2018 1008 RIDDICK, BRIAN DONTRAY B M 27 PB-15 PAROLE BOARD WARRANT - PB15
2/14/2018 1240 WALLER, RASHAD B M 40 18.2-456 CONTEMPT OF COURT
2/14/2018 1245 VREEN, TIMOTHY LEVIEN JR B M 26 18.2-456 CONTEMPT OF COURT
2/14/2018 1245 BASS, SUSAN ELIZABETH W F 54 18.2-51 FELONIOUS ASSAULT 2018001684
2/14/2018 1311 COX, TAPORIA CHYNA B F 21 18.2-137|[M] DESTRUCTION OF PROPERTY, GENERAL
2/14/2018 1505 RAMLATCHAN, SAMDEO I M 39 18.2-456 CONTEMPT OF COURT
2/14/2018 1521 SHUMATE, JONATHAN G W M 36 18.2-456 CONTEMPT OF COURT
2/14/2018 1555 RUFFIN, JOHNNY IVAN III B M 21 18.2-57|[M] ASSAULT & BATTERY
2/14/2018 1607 CARR, STEVEN RANDOLPH W M 58 18.2-95 GRAND LARCENY 2017016378
2/14/2018 1607 CARR, STEVEN RANDOLPH W M 58 18.2-95 GRAND LARCENY 2017016505
2/15/2018 0053 LEE, SAMUEL EUGENE B M 67 18.2-456 CONTEMPT OF COURT
2/15/2018 0053 LEE, SAMUEL EUGENE B M 67 18.2-456 CONTEMPT OF COURT
2/15/2018 0452 GANDY, BRANDON LEE W M 21 18.2-57.2|[M] ASSAULT & BATTERY - FAMILY MEMBER 2018001831
2/15/2018 0452 GANDY, BRANDON LEE W M 21 18.2-164 UNLAWFUL USE OR INJURY TO TELEPHONE LINES 2018001831
2/15/2018 1000 MINES, GARRY WARDELL B M 61 18.2-456 CONTEMPT OF COURT
2/15/2018 1100 BRITT, JAMAL AL B M 21 18.2-456 CONTEMPT OF COURT
2/15/2018 1210 JOHNSON, RONNELL KAREEM LEVON B M 24 18.2-57.2|[M] ASSAULT & BATTERY - FAMILY MEMBER 2018001741
2/15/2018 1210 JOHNSON, RONNELL KAREEM LEVON B M 24 16.1-279.1 PROTECTIVE ORDER IN CASES OF FAMILY ABUS
2/15/2018 1210 JOHNSON, RONNELL KAREEM LEVON B M 24 16.1-279.1 PROTECTIVE ORDER IN CASES OF FAMILY ABUS
2/15/2018 1535 BRANCH, DEMETRIUS DANTE B M 35 18.2-248|[F] MANUF, SALE, POSSESSION CONTROLLED SUBSTANCE 2018001845
2/15/2018 1535 BRANCH, DEMETRIUS DANTE B M 35 18.2-308.2 POSSESS, TRANSPORT FIREARMS BY CONVICTED FELONS 2018001845
2/15/2018 1535 BRANCH, DEMETRIUS DANTE B M 35 18.2-308.4 POSSESS FIREARM WHILE IN POSSESSION OF DRUGS 2018001845
2/15/2018 1535 BRANCH, DEMETRIUS DANTE B M 35 18.2-248.1|[M] SALE, DISTRIBUTE MARIJUANA 2018001845
2/15/2018 9:21:00 AM 0921 CARTER, JANEAI ANTOINETTE B F 33 18.2-427 PROFANE, THREATENING LANGUAGE OVER PUBLIC AIRWAY 2018001406
2/16/2018 0008 JOHNSON, ROBERT DEVANT B M 25 18.2-95 GRAND LARCENY 2016007322
2/16/2018 0505 RUFFIN, JOHNSON LEE B M 42 18.2-456 CONTEMPT OF COURT
2/16/2018 1007 JORDAN, CAROLYN ANN B F 54 19.2-306|[F] REVOCATION OF SUSPENDED SENTENCE AND PROBATION
2/16/2018 1007 JORDAN, CAROLYN ANN B F 54 19.2-306|[F] REVOCATION OF SUSPENDED SENTENCE AND PROBATION
2/16/2018 1007 JORDAN, CAROLYN ANN B F 54 19.2-306|[F] REVOCATION OF SUSPENDED SENTENCE AND PROBATION
2/16/2018 1007 JORDAN, CAROLYN ANN B F 54 19.2-306|[F] REVOCATION OF SUSPENDED SENTENCE AND PROBATION
2/16/2018 1040 VINES, JERROD DEMONTE B M 31 18.2-57|[M] ASSAULT & BATTERY
2/16/2018 1045 MYERS, NIKIA ANN B F 39 18.2-57.2|[M] ASSAULT & BATTERY - FAMILY MEMBER
2/16/2018 1135 HARRIS, JOHN FITZGERALD B M 53 24-258 PUBLIC DRUNKENNESS 2018001904
2/16/2018 1146 STALLINGS, KAMISHA LASHEA B F 29 18.2-137|[M] DESTRUCTION OF PROPERTY, GENERAL
2/16/2018 1146 STALLINGS, KAMISHA LASHEA B F 29 18.2-427 PROFANE, THREATENING LANGUAGE OVER PUBLIC AIRWAY
2/16/2018 1317 GARDNER, TRACY ALLEN B M 50 24-253 ALCOHOL - OPEN CONTAINER OF AN ALCOHOLIC BEVERAGE IN ANY PUB 2018001911
2/16/2018 1330 TURNER, DOUGLAS LEAMAN B M 63 19.2-306|[F] REVOCATION OF SUSPENDED SENTENCE AND PROBATION
2/16/2018 1505 WIGGINS, REGINALD ALLEN JR B M 18 18.2-91|[F] BREAKING & ENTER W/INT TO COMMIT FELONY 2017015101
2/16/2018 1505 WIGGINS, REGINALD ALLEN JR B M 18 18.2-22 CONSPIRACY TO COMMIT FELONY 2017015101
2/16/2018 1505 WIGGINS, REGINALD ALLEN JR B M 18 18.2-95 GRAND LARCENY 2017015101
2/16/2018 1505 WIGGINS, REGINALD ALLEN JR B M 18 18.2-137|[F] DESTRUCTION OF PROPERTY GENERAL -VALUE >=$1000 2017015101
2/16/2018 1505 WIGGINS, REGINALD ALLEN JR B M 18 18.2-91|[F] BREAKING & ENTER W/INT TO COMMIT FELONY 2017015101
2/16/2018 1505 WIGGINS, REGINALD ALLEN JR B M 18 18.2-22 CONSPIRACY TO COMMIT FELONY 2017015101
2/16/2018 1505 WIGGINS, REGINALD ALLEN JR B M 18 18.2-95 GRAND LARCENY 2017015101
2/16/2018 1505 WIGGINS, REGINALD ALLEN JR B M 18 18.2-26 ATTEMPT TO COMMIT NONCAPITAL OFFENSE 2017015101
2/16/2018 1505 WIGGINS, REGINALD ALLEN JR B M 18 18.2-26 ATTEMPT TO COMMIT NONCAPITAL OFFENSE 2017015101
2/16/2018 1505 WIGGINS, REGINALD ALLEN JR B M 18 18.2-22 CONSPIRACY TO COMMIT FELONY 2017015101
2/16/2018 1505 WIGGINS, REGINALD ALLEN JR B M 18 18.2-22 CONSPIRACY TO COMMIT FELONY 2017015101
2/16/2018 1530 WALKER, TARON DEVELLE B M 29 COURTESY COURTESY HOLD
2/16/2018 1609 TURNER, DOUGLAS LEAMAN B M 63 18.2-96|[F] LARCENY OR THEFT (3RD OR SUBSQ OFFENSE) 2018001916
2/16/2018 1635 PERRY, DEREK RAY W M 50 18.2-456 CONTEMPT OF COURT
2/16/2018 1715 HALL, ANTHONY MANEEK B M 21 18.2-282|[M] BRANDISHING FIREARM 2018001202
2/16/2018 1906 MOORE, KORTNEY ANSHAY B F 26 18.2-456 CONTEMPT OF COURT
2/16/2018 1930 DIVENUTI, MATTHEW ANTHONY W M 27 18.2-308.2 POSSESS, TRANSPORT FIREARMS BY CONVICTED FELONS 2018001920
2/16/2018 1930 DIVENUTI, MATTHEW ANTHONY W M 27 18.2-250.1 POSSESSION OF MARIJUANA 2018001920
2/16/2018 2050 WHITLEY, JASON DARNELL B M 36 46.2-894 ACCIDENTS - HIT AND RUN RESULTING IN INJURY AND/OR DEATH [FE
2/17/2018 0158 BENTON, ANTHONY TYRONE B M 53 19.2-306|[F] REVOCATION OF SUSPENDED SENTENCE AND PROBATION
2/17/2018 0158 BENTON, ANTHONY TYRONE B M 53 19.2-306|[F] REVOCATION OF SUSPENDED SENTENCE AND PROBATION
2/17/2018 0949 DARDEN, MAURICE ANTONIO SR B M 46 18.2-456 CONTEMPT OF COURT
2/17/2018 1222 HALL-RANDALL, DIMANTRE LASHAWN B M 19 18.2-308.2 POSSESS, TRANSPORT FIREARMS BY CONVICTED FELONS 2018001945
2/17/2018 1222 HALL-RANDALL, DIMANTRE LASHAWN B M 19 18.2-308.2 POSSESS, TRANSPORT FIREARMS BY CONVICTED FELONS 2018001945
2/17/2018 1222 HALL-RANDALL, DIMANTRE LASHAWN B M 19 18.2-308.2 POSSESS, TRANSPORT FIREARMS BY CONVICTED FELONS 2018001945
2/17/2018 1425 HERNANDEZ-REYES, JONATHAN DANILO W M 22 18.2-95 GRAND LARCENY
2/17/2018 1425 HERNANDEZ-REYES, JONATHAN DANILO W M 22 18.2-23 CONSPIRING TO TRESPASS OR COMMIT LARCENY
2/17/2018 1500 COOKLIN, SARAH KATHLEEN W F 19 18.2-95 GRAND LARCENY
2/17/2018 1500 COOKLIN, SARAH KATHLEEN W F 19 18.2-23 CONSPIRING TO TRESPASS OR COMMIT LARCENY
2/17/2018 1709 MOODY, NAKENA BREON B F 40 3.2-6540 CONTROL OF DANGEROUS OR VICIOUS DOGS; PENALTIES.
2/17/2018 1900 EDMONDS, SHEMAIAH JUDIAH B F 22 18.2-89|[F] BURGLARY 2018000778
2/17/2018 1900 EDMONDS, SHEMAIAH JUDIAH B F 22 18.2-58 ROBBERY 2018000778
2/17/2018 2253 TAYLOR, MARK STEVEN JR B M 24 18.2-57|[M] ASSAULT & BATTERY
2/17/2018 5:46:00 AM 0546 WATKINS, CHRISTOPHER WARREN B M 36 18.2-51 FELONIOUS ASSAULT 2017016589
2/17/2018 9:00:00 AM 0900 BROWN, FRAYA CHAMPRE B F 35 4-31 DOG AT LARGE
2/17/2018 11:16:00 AM 1116 WATKINS, WARREN CHRISTOPHER B M 36 18.2-51 FELONIOUS ASSAULT
2/18/2018 0118 HYMAN, CANDRA DENISE B F 32 18.2-57.2|[M] ASSAULT & BATTERY - FAMILY MEMBER 2018001973
2/18/2018 1238 GATLING, QUENTIN CHRISTOPHER JR B M 20 18.2-456 CONTEMPT OF COURT
2/18/2018 1545 HARRISON, QUASHAWN TYMAR B M 20 46.2-938 FAILURE TO APPEAR FOR TRAFFIC SUMMONS
2/18/2018 1810 MORRIS, ZACHARY MARTIN W M 27 18.2-95 GRAND LARCENY
2/18/2018 1810 MORRIS, ZACHARY MARTIN W M 27 18.2-95 GRAND LARCENY
2/18/2018 1810 MORRIS, ZACHARY MARTIN W M 27 18.2-108.01 STOLEN PROPERTY: W/ INTENT TO SELL, LARCENY>$200
2/18/2018 1810 MORRIS, ZACHARY MARTIN W M 27 18.2-108.01 STOLEN PROPERTY: W/ INTENT TO SELL, LARCENY>$200
2/18/2018 1810 MORRIS, ZACHARY MARTIN W M 27 18.2-23 CONSPIRING TO TRESPASS OR COMMIT LARCENY
2/18/2018 1810 MORRIS, ZACHARY MARTIN W M 27 18.2-23 CONSPIRING TO TRESPASS OR COMMIT LARCENY
2/18/2018 1810 MORRIS, ZACHARY MARTIN W M 27 18.2-58 ROBBERY 2017016025
2/18/2018 1937 HALL, VANESSA RAEANN W F 33 18.2-456 CONTEMPT OF COURT
2/18/2018 8:00:00 PM 2000 HOSKINS, ERIC ANTONIO B M 22 18.2-57.2|[M] ASSAULT & BATTERY - FAMILY MEMBER 2018001842
2/19/2018 0950 LILLE, ELISA BETH W F 24 18.2-102|[F] UNAUTHORIZED USE OF VEHICLE, BOAT OR ANIMAL 2018001266
2/19/2018 1150 BLOUNT, EBONIE MICHELLE B F 31 18.2-26 ATTEMPT TO COMMIT NONCAPITAL OFFENSE 2018001883
2/19/2018 1150 BLOUNT, EBONIE MICHELLE B F 31 18.2-26 ATTEMPT TO COMMIT NONCAPITAL OFFENSE 2018001883
2/19/2018 1150 BLOUNT, EBONIE MICHELLE B F 31 18.2-26 ATTEMPT TO COMMIT NONCAPITAL OFFENSE 2018001883
2/19/2018 1150 BLOUNT, EBONIE MICHELLE B F 31 18.2-96|[M] PETIT LARCENY 2018001883
2/19/2018 1150 BLOUNT, EBONIE MICHELLE B F 31 18.2-137|[M] DESTRUCTION OF PROPERTY, GENERAL 2018001883
2/19/2018 1150 BLOUNT, EBONIE MICHELLE B F 31 16.1-279.1 PROTECTIVE ORDER IN CASES OF FAMILY ABUS 2018001883
2/19/2018 1320 AVERY, JAYLIN DIVYNE B M 19 18.2-26 ATTEMPT TO COMMIT NONCAPITAL OFFENSE 2017015440
2/19/2018 1320 AVERY, JAYLIN DIVYNE B M 19 18.2-137|[M] DESTRUCTION OF PROPERTY, GENERAL 2017015440
2/19/2018 1428 BAGLEY, EDDIE ANTHONY B M 53 18.2-456 CONTEMPT OF COURT
2/19/2018 1450 DUNCAN, STACEY W W F 45 18.2-57|[M] ASSAULT & BATTERY
2/19/2018 1515 HULL, XAVIER GRAY B M 24 16.1-292 VIOLATION OF COURT ORDER
2/19/2018 2227 FOLSTON, RUFUS B M 18 18.2-57|[M] ASSAULT & BATTERY
2/19/2018 2235 CLAYTON, ADRIAN CHRISTIEN B M 20 18.2-266|[M] DRIVING UNDER THE INFLUENCE OF ALCOHOL 2018002036
2/19/2018 2235 CLAYTON, ADRIAN CHRISTIEN B M 20 18.2-266.1 DRIVING AFTER ILLEGALLY CONSUMING ALCOHOL 2018002036
2/19/2018 2304 BISHOP, MONICA YVETTE B F 49 19.2-152.4:1[F] REVOCATION OF PRETRIAL RELEASE
2/19/2018 2304 BISHOP, MONICA YVETTE B F 49 19.2-152.4:1[F] REVOCATION OF PRETRIAL RELEASE
2/19/2018 12:23:00 PM 1223 BULLOCK, MARKEL B M 20 18.2-137|[M] DESTRUCTION OF PROPERTY, GENERAL
2/20/2018 0050 POWELL, FREDERICK EARL B M 34 18.2-57.2|[F] ASSAULT & BATTERY - FAMILY MEMBER (3RD OFFENSE) 2018002035
2/20/2018 0425 WINBORNE, DONTE JAMAINE B M 32 18.2-456 CONTEMPT OF COURT
2/20/2018 1007 SMITH, ALBERT B M 66 24-253 ALCOHOL - OPEN CONTAINER OF AN ALCOHOLIC BEVERAGE IN ANY PUB 2018002059
2/20/2018 1013 JOHNSON, JOSHUA DOYLE W M 23 18.2-95 GRAND LARCENY 2018001446
2/20/2018 1050 WATSON, JASMINE MARIE B F 25 18.2-102|[F] UNAUTHORIZED USE OF VEHICLE, BOAT OR ANIMAL
2/20/2018 1111 FREDERICK, MICHAEL CHRISTIAN W M 32 18.2-111|[F] EMBEZZLEMENT >=$200 2017015321
2/20/2018 1111 FREDERICK, MICHAEL CHRISTIAN W M 32 18.2-108.01 STOLEN PROPERTY: W/ INTENT TO SELL, LARC 2017015321
2/20/2018 1111 FREDERICK, MICHAEL CHRISTIAN W M 32 18.2-178|[M] OBTAINING MONEY BY FALSE PRETENSES 2017015321
2/20/2018 1111 FREDERICK, MICHAEL CHRISTIAN W M 32 18.2-108.01 STOLEN PROPERTY: W/ INTENT TO SELL, LARC 2017015321
2/20/2018 1111 FREDERICK, MICHAEL CHRISTIAN W M 32 18.2-178|[F] OBTAINING MONEY BY FALSE PRETENSES 2017015321
2/20/2018 1335 BULLOCK, MARKEL B M 20 18.2-137|[M] DESTRUCTION OF PROPERTY, GENERAL
2/20/2018 1450 COLLINS, JAQUAY ARMANI B F 18 18.2-42 ASSAULT OR BATTERY BY MOB
2/20/2018 1450 COLLINS, JAQUAY ARMANI B F 18 18.2-137|[M] DESTRUCTION OF PROPERTY, GENERAL
2/20/2018 1621 WINDLEY, MARK ANTHONY B M 55 24-253 ALCOHOL - OPEN CONTAINER OF AN ALCOHOLIC BEVERAGE IN ANY PUB 2018002068
2/20/2018 1641 HAYES, BEVERLY A B F 61 4.1-308 DRINKING ALCOHOL IN PUBLIC
2/20/2018 1650 PETERS, RONIEE CHARLES B M 60 24-253 ALCOHOL - OPEN CONTAINER OF AN ALCOHOLIC BEVERAGE IN ANY PUB
2/20/2018 1720 ATKINSON, JONATHAN WILLIAM W M 43 19.2-306|[F] REVOCATION OF SUSPENDED SENTENCE AND PROBATION
2/20/2018 1740 WILLIAMS, ROBERT ALVIN B M 36 18.2-456 CONTEMPT OF COURT
2/20/2018 1740 WILLIAMS, ROBERT ALVIN B M 36 19.2-306|[F] REVOCATION OF SUSPENDED SENTENCE AND PROBATION
2/20/2018 1740 WILLIAMS, ROBERT ALVIN B M 36 19.2-306|[F] REVOCATION OF SUSPENDED SENTENCE AND PROBATION
2/20/2018 1822 GARDINER, RYAN SCOTT W M 37 19.2-306|[M] REVOCATION OF SUSPENDED SENTENCE AND PROBATION
2/21/2018 0441 CHARLES, ATIF ALIM FARRAH B M 38 18.2-57|[F] ASSAULT & BATTERY
2/21/2018 0441 CHARLES, ATIF ALIM FARRAH B M 38 18.2-57|[F] ASSAULT & BATTERY
2/21/2018 0441 CHARLES, ATIF ALIM FARRAH B M 38 18.2-250|[F] POSSESSION OF CONTROLLED SUBSTANCES
2/21/2018 0441 CHARLES, ATIF ALIM FARRAH B M 38 18.2-460[M] OBSTRUCT/RESIST
2/21/2018 0441 CHARLES, ATIF ALIM FARRAH B M 38 18.2-479.1 FLEEING FROM LAW ENFORCEMENT OFFICER
2/21/2018 0900 HARRELL, VERNON EDWARD B M 56 18.2-103|[M] CONCEALMENT, PRICE ALTER MERCHANDISE <$200 2017016269
2/21/2018 0910 BOWDEN, PATRICIA DEBORA B F 46 8.01-508 FAIL TO APPEAR ON CIVIL MATTER
2/21/2018 0930 MIFFLETON, JACQUITA RENEE B F 31 16.1-292 VIOLATION OF COURT ORDER
2/21/2018 0930 COKER, JAMES AARON W M 37 16.1-292 VIOLATION OF COURT ORDER
2/21/2018 0930 COKER, JAMES AARON W M 37 16.1-292 VIOLATION OF COURT ORDER
2/21/2018 1010 CLEMONS, COREY DESHAWN B M 25 18.2-456 CONTEMPT OF COURT
2/21/2018 1010 CLEMONS, COREY DESHAWN B M 25 19.2-306|[F] REVOCATION OF SUSPENDED SENTENCE AND PROBATION
2/21/2018 1010 CLEMONS, COREY DESHAWN B M 25 19.2-306|[F] REVOCATION OF SUSPENDED SENTENCE AND PROBATION
2/21/2018 1100 SCOTT, SHANITA LAPREE B F 33 18.2-57|[M] ASSAULT & BATTERY
2/21/2018 1100 SCOTT, SHANITA LAPREE B F 33 19.2-152.10 PROTECTIVE ORDER
2/21/2018 1200 YOUNG, ANGELA LAVERNE B F 43 18.2-456 CONTEMPT OF COURT
2/21/2018 1311 HALL, CARLTON B M 52 18.2-456 CONTEMPT OF COURT
2/21/2018 1348 JOHNSON, ERIC DUANE W M 40 18.2-427 PROFANE, THREATENING LANGUAGE OVER PUBLIC AIRWAY
2/21/2018 1455 SMITH, BRONDOLYN SHERRELL B F 33 18.2-137|[M] DESTRUCTION OF PROPERTY, GENERAL
2/21/2018 1616 DELOATCH, JARVIS LYNDELL B M 35 18.2-32|[F][A] MURDER - FIRST DEGREE 2018001784
2/21/2018 1616 DELOATCH, JARVIS LYNDELL B M 35 18.2-53.1 USE OR DISPLAY FIREARM IN COMMISSION OF 2018001784
2/21/2018 1616 DELOATCH, JARVIS LYNDELL B M 35 18.2-308.2 POSSESS, TRANSPORT FIREARMS BY CONVICTED 2018001784
2/21/2018 1700 HURDLE, ROMAN THOMAS B M 38 COURTESY COURTESY HOLD
2/21/2018 1703 BOND, CURTIS LIONEL JR B M 49 24-258 PUBLIC DRUNKENNESS 2018002117
2/21/2018 1703 BOND, CURTIS LIONEL JR B M 49 18.2-57|[M] ASSAULT & BATTERY
2/21/2018 1703 BOND, CURTIS LIONEL JR B M 49 18.2-57|[M] ASSAULT & BATTERY
2/21/2018 1757 BROWN, ANTONIO NATHANIEL B M 42 COURTESY COURTESY HOLD
2/21/2018 2330 SPENCE, AARON CURTIS B M 36 18.2-119 TRESPASSING 2018002131
2/21/2018 2330 SPENCE, AARON CURTIS B M 36 24-258 PUBLIC DRUNKENNESS 2018002131
2/21/2018 1:50:00 AM 0150 BELL, MASHAY WHYKIEA B F 18 18.2-57.2|[M] ASSAULT & BATTERY - FAMILY MEMBER 2017016959
2/21/2018 11:00:00 AM 1100 SCOTT, SHANITA LAPREE B F 33 18.2-57|[M] ASSAULT & BATTERY
2/21/2018 12:15:00 PM 1215 CREW, KEITH B M 49 18.2-456 CONTEMPT OF COURT
2/21/2018 12:56:00 PM 1256 WRIGHT, KAREN ANECIA B F 31 18.2-57.2|[M] ASSAULT & BATTERY - FAMILY MEMBER
2/22/2018 0002 MURRIELL, DARRYLE THOMAS B M 50 18.2-456 CONTEMPT OF COURT
2/22/2018 0348 ABBOTT, HERBERT PAUL W M 50 18.2-102|[F] UNAUTHORIZED USE OF VEHICLE, BOAT OR ANIMAL
2/22/2018 1:18:00 AM 0118 BAILEY, DERICK LASHEA B M 36 18.2-57.2|[M] ASSAULT & BATTERY - FAMILY MEMBER 2018002134